Observation data for Amarillo 15 North Northwest on 06/18/2019      Previous  Date  Next       Current Mesonet Observations  Soil Data  Daily Summary Page  Observations in Plain Language
KAM3 180500Z 13010KT 17/17 A3001 RMK A01 T01650165  RH  100%=      5-min Rain = 0
KAM3 180501Z 13010KT 17/17 A3001 RMK A01 T01660166  RH  100%=      5-min Rain = 0
KAM3 180502Z 13010KT 17/17 A3001 RMK A01 T01660165  RH  099%=      5-min Rain = 0
KAM3 180503Z 13010KT 17/16 A30 RMK A01 T01680163  RH  097%=      5-min Rain = 0
KAM3 180504Z 13009KT 17/16 A30 RMK A01 T01680161  RH  096%=      5-min Rain = 0
KAM3 180505Z 14011KT 17/16 A3001 RMK A01 T01680162  RH  096%=      5-min Rain = 0
KAM3 180506Z 14008KT 17/16 A30 RMK A01 T01690161  RH  096%=      5-min Rain = 0
KAM3 180507Z 13008KT 17/16 A30 RMK A01 T01680162  RH  096%=      5-min Rain = 0
KAM3 180508Z 14009KT 17/16 A30 RMK A01 T01680162  RH  096%=      5-min Rain = 0
KAM3 180509Z 14010KT 17/16 A30 RMK A01 T01680160  RH  095%=      5-min Rain = 0
KAM3 180510Z 14010KT 17/16 A30 RMK A01 T01690156  RH  092%=      5-min Rain = 0
KAM3 180511Z 14009KT 17/16 A30 RMK A01 T01700156  RH  091%=      5-min Rain = 0
KAM3 180512Z 15009KT 17/16 A30 RMK A01 T01710159  RH  093%=      5-min Rain = 0
KAM3 180513Z 14009KT 17/16 A30 RMK A01 T01700161  RH  094%=      5-min Rain = 0
KAM3 180514Z 14011KT 17/16 A30 RMK A01 T01700159  RH  094%=      5-min Rain = 0
KAM3 180515Z 14010KT 17/16 A30 RMK A01 T01700159  RH  094%=      5-min Rain = 0
KAM3 180516Z 15010KT 17/16 A30 RMK A01 T01700159  RH  093%=      5-min Rain = 0
KAM3 180517Z 14011KT 17/16 A30 RMK A01 T01700159  RH  093%=      5-min Rain = 0
KAM3 180518Z 15010KT 17/16 A30 RMK A01 T01710158  RH  092%=      5-min Rain = 0
KAM3 180519Z 14011KT 17/16 A30 RMK A01 T01710160  RH  093%=      5-min Rain = 0
KAM3 180520Z 14012KT 17/16 A30 RMK A01 T01710157  RH  091%=      5-min Rain = 0
KAM3 180521Z 14011KT 17/16 A2999 RMK A01 T01720155  RH  090%=      5-min Rain = 0
KAM3 180522Z 15011KT 17/16 A2999 RMK A01 T01730156  RH  090%=      5-min Rain = 0
KAM3 180523Z 15011KT 17/15 A2999 RMK A01 T01740154  RH  088%=      5-min Rain = 0
KAM3 180524Z 15010KT 17/16 A2999 RMK A01 T01740156  RH  089%=      5-min Rain = 0
KAM3 180525Z 14010KT 17/16 A2999 RMK A01 T01740156  RH  089%=      5-min Rain = 0
KAM3 180526Z 14009KT 17/16 A2999 RMK A01 T01740156  RH  089%=      5-min Rain = 0
KAM3 180527Z 15009KT 17/16 A2999 RMK A01 T01740156  RH  089%=      5-min Rain = 0
KAM3 180528Z 14009KT 17/16 A2999 RMK A01 T01740155  RH  088%=      5-min Rain = 0
KAM3 180529Z 14009KT 17/15 A2999 RMK A01 T01740153  RH  088%=      5-min Rain = 0
KAM3 180530Z 14009KT 17/15 A2999 RMK A01 T01740153  RH  087%=      5-min Rain = 0
KAM3 180531Z 14009KT 18/15 A2999 RMK A01 T01750153  RH  087%=      5-min Rain = 0
KAM3 180532Z 14009KT 18/15 A2999 RMK A01 T01750154  RH  087%=      5-min Rain = 0
KAM3 180533Z 14009KT 18/15 A2999 RMK A01 T01750153  RH  087%=      5-min Rain = 0
KAM3 180534Z 14010KT 18/15 A2998 RMK A01 T01750153  RH  087%=      5-min Rain = 0
KAM3 180535Z 14009KT 18/15 A2998 RMK A01 T01760152  RH  086%=      5-min Rain = 0
KAM3 180536Z 14009KT 18/15 A2998 RMK A01 T01760152  RH  086%=      5-min Rain = 0
KAM3 180537Z 14009KT 18/15 A2998 RMK A01 T01760152  RH  086%=      5-min Rain = 0
KAM3 180538Z 13009KT 18/15 A2998 RMK A01 T01760151  RH  085%=      5-min Rain = 0
KAM3 180539Z 13009KT 18/15 A2998 RMK A01 T01770151  RH  085%=      5-min Rain = 0
KAM3 180540Z 13009KT 18/15 A2998 RMK A01 T01770151  RH  085%=      5-min Rain = 0
KAM3 180541Z 14009KT 18/15 A2998 RMK A01 T01770151  RH  085%=      5-min Rain = 0
KAM3 180542Z 14008KT 18/15 A2998 RMK A01 T01770151  RH  085%=      5-min Rain = 0
KAM3 180543Z 14008KT 18/15 A2998 RMK A01 T01770151  RH  085%=      5-min Rain = 0
KAM3 180544Z 14007KT 18/15 A2998 RMK A01 T01770153  RH  086%=      5-min Rain = 0
KAM3 180545Z 14007KT 18/15 A2998 RMK A01 T01770153  RH  086%=      5-min Rain = 0
KAM3 180546Z 15007KT 18/15 A2998 RMK A01 T01770152  RH  086%=      5-min Rain = 0
KAM3 180547Z 15007KT 18/15 A2998 RMK A01 T01770152  RH  085%=      5-min Rain = 0
KAM3 180548Z 15007KT 18/15 A2998 RMK A01 T01770150  RH  084%=      5-min Rain = 0
KAM3 180549Z 16007KT 18/15 A2998 RMK A01 T01770151  RH  085%=      5-min Rain = 0
KAM3 180550Z 16007KT 18/15 A2998 RMK A01 T01770152  RH  085%=      5-min Rain = 0
KAM3 180551Z 16007KT 18/15 A2998 RMK A01 T01770152  RH  085%=      5-min Rain = 0
KAM3 180552Z 16007KT 18/15 A2998 RMK A01 T01770153  RH  086%=      5-min Rain = 0
KAM3 180553Z 16007KT 18/15 A2997 RMK A01 T01770151  RH  085%=      5-min Rain = 0
KAM3 180554Z 16006KT 18/15 A2997 RMK A01 T01770149  RH  084%=      5-min Rain = 0
KAM3 180555Z 16007KT 18/15 A2997 RMK A01 T01770149  RH  083%=      5-min Rain = 0
KAM3 180556Z 15007KT 18/15 A2997 RMK A01 T01780149  RH  083%=      5-min Rain = 0
KAM3 180557Z 14007KT 18/15 A2997 RMK A01 T01780149  RH  083%=      5-min Rain = 0
KAM3 180558Z 14007KT 18/15 A2997 RMK A01 T01780151  RH  084%=      5-min Rain = 0
KAM3 180559Z 14008KT 18/15 A2997 RMK A01 T01770152  RH  085%=      5-min Rain = 0
KAM3 180600Z 14008KT 18/15 A2997 RMK A01 T01770150  RH  084%=      5-min Rain = 0
KAM3 180601Z 14008KT 18/15 A2997 RMK A01 T01780145  RH  081%=      5-min Rain = 0
KAM3 180602Z 14008KT 18/14 A2997 RMK A01 T01790142  RH  079%=      5-min Rain = 0
KAM3 180603Z 14009KT 18/14 A2997 RMK A01 T01810139  RH  077%=      5-min Rain = 0
KAM3 180604Z 14009KT 18/14 A2997 RMK A01 T01830137  RH  074%=      5-min Rain = 0
KAM3 180605Z 14007KT 19/14 A2997 RMK A01 T01850137  RH  073%=      5-min Rain = 0
KAM3 180606Z 16009KT 19/13 A2997 RMK A01 T01850134  RH  072%=      5-min Rain = 0
KAM3 180607Z 16010KT 19/13 A2998 RMK A01 T01880128  RH  068%=      5-min Rain = 0
KAM3 180608Z 16009KT 19/13 A2998 RMK A01 T01920126  RH  066%=      5-min Rain = 0
KAM3 180609Z 15009KT 19/13 A2998 RMK A01 T01940129  RH  066%=      5-min Rain = 0
KAM3 180610Z 13006KT 20/13 A2998 RMK A01 T01950129  RH  066%=      5-min Rain = 0
KAM3 180611Z 13005KT 20/13 A2998 RMK A01 T01950131  RH  066%=      5-min Rain = 0
KAM3 180612Z 13005KT 19/13 A2998 RMK A01 T01940133  RH  068%=      5-min Rain = 0
KAM3 180613Z 13006KT 19/14 A2998 RMK A01 T01930136  RH  070%=      5-min Rain = 0
KAM3 180614Z 14006KT 19/14 A2998 RMK A01 T01900137  RH  071%=      5-min Rain = 0
KAM3 180615Z 15005KT 19/14 A2998 RMK A01 T01890136  RH  071%=      5-min Rain = 0
KAM3 180616Z 16004KT 19/14 A2999 RMK A01 T01880137  RH  072%=      5-min Rain = 0
KAM3 180617Z 16004KT 19/14 A2999 RMK A01 T01870139  RH  074%=      5-min Rain = 0
KAM3 180618Z 17005KT 19/14 A2999 RMK A01 T01860140  RH  074%=      5-min Rain = 0
KAM3 180619Z 16005KT 19/14 A2999 RMK A01 T01850140  RH  075%=      5-min Rain = 0
KAM3 180620Z 16005KT 18/14 A30 RMK A01 T01840139  RH  075%=      5-min Rain = 0
KAM3 180621Z 18006KT 18/14 A30 RMK A01 T01840137  RH  074%=      5-min Rain = 0
KAM3 180622Z 18005KT 18/14 A30 RMK A01 T01840137  RH  074%=      5-min Rain = 0
KAM3 180623Z 18006KT 18/14 A30 RMK A01 T01840136  RH  074%=      5-min Rain = 0
KAM3 180624Z 19006KT 18/14 A30 RMK A01 T01840136  RH  074%=      5-min Rain = 0
KAM3 180625Z 19006KT 18/14 A30 RMK A01 T01840137  RH  074%=      5-min Rain = 0
KAM3 180626Z 18006KT 19/14 A30 RMK A01 T01850138  RH  074%=      5-min Rain = 0
KAM3 180627Z 19006KT 18/14 A30 RMK A01 T01840137  RH  074%=      5-min Rain = 0
KAM3 180628Z 18006KT 18/14 A30 RMK A01 T01840136  RH  074%=      5-min Rain = 0
KAM3 180629Z 19007KT 18/14 A30 RMK A01 T01840137  RH  074%=      5-min Rain = 0
KAM3 180630Z 19008KT 18/14 A30 RMK A01 T01840136  RH  074%=      5-min Rain = 0
KAM3 180631Z 20011KT 18/14 A3001 RMK A01 T01840139  RH  075%=      5-min Rain = 0
KAM3 180632Z 21012KT 18/14 A3001 RMK A01 T01830140  RH  076%=      5-min Rain = 0
KAM3 180633Z 21012KT 18/14 A3002 RMK A01 T01820142  RH  077%=      5-min Rain = 0
KAM3 180634Z 21010KT 18/14 A3002 RMK A01 T01800143  RH  079%=      5-min Rain = 0
KAM3 180635Z 21009KT 18/14 A3002 RMK A01 T01790143  RH  079%=      5-min Rain = 0
KAM3 180636Z 21009KT 18/14 A3001 RMK A01 T01790143  RH  079%=      5-min Rain = 0
KAM3 180637Z 21008KT 18/14 A3001 RMK A01 T01790143  RH  079%=      5-min Rain = 0
KAM3 180638Z 21007KT 18/14 A3001 RMK A01 T01790144  RH  080%=      5-min Rain = 0
KAM3 180639Z 22007KT 18/15 A3001 RMK A01 T01780145  RH  081%=      5-min Rain = 0
KAM3 180640Z 21007KT 18/15 A3001 RMK A01 T01780146  RH  082%=      5-min Rain = 0
KAM3 180641Z 22006KT 18/15 A3001 RMK A01 T01770146  RH  082%=      5-min Rain = 0
KAM3 180642Z 21004KT 18/15 A3001 RMK A01 T01770147  RH  083%=      5-min Rain = 0
KAM3 180643Z 22005KT 18/15 A3001 RMK A01 T01770148  RH  083%=      5-min Rain = 0
KAM3 180644Z 22006KT 18/15 A3001 RMK A01 T01760145  RH  082%=      5-min Rain = 0
KAM3 180645Z 22006KT 18/14 A3001 RMK A01 T01770144  RH  081%=      5-min Rain = 0
KAM3 180646Z 22005KT 18/15 A3001 RMK A01 T01770145  RH  081%=      5-min Rain = 0
KAM3 180647Z 21006KT 18/15 A3001 RMK A01 T01770145  RH  081%=      5-min Rain = 0
KAM3 180648Z 21006KT 18/15 A3001 RMK A01 T01770145  RH  081%=      5-min Rain = 0
KAM3 180649Z 21009KT 18/15 A3002 RMK A01 T01770145  RH  082%=      5-min Rain = 0
KAM3 180650Z 22010KT 18/14 A3002 RMK A01 T01770142  RH  080%=      5-min Rain = 0
KAM3 180651Z 21010KT 18/14 A3002 RMK A01 T01790142  RH  079%=      5-min Rain = 0
KAM3 180652Z 22009KT 18/14 A3002 RMK A01 T01800143  RH  079%=      5-min Rain = 0
KAM3 180653Z 21011KT 18/14 A3002 RMK A01 T01800143  RH  079%=      5-min Rain = 0
KAM3 180654Z 21011KT 18/14 A3002 RMK A01 T01800143  RH  079%=      5-min Rain = 0
KAM3 180655Z 20012G17KT 18/14 A3002 RMK A01 T01800142  RH  079%=      5-min Rain = 0
KAM3 180656Z 20011KT 18/14 A3002 RMK A01 T01800143  RH  079%=      5-min Rain = 0
KAM3 180657Z 20012KT 18/14 A3002 RMK A01 T01800142  RH  079%=      5-min Rain = 0
KAM3 180658Z 21012G17KT 18/14 A3002 RMK A01 T01800143  RH  079%=      5-min Rain = 0
KAM3 180659Z 20014KT 18/14 A3002 RMK A01 T01800142  RH  079%=      5-min Rain = 0
KAM3 180700Z 20015KT 18/14 A3002 RMK A01 T01790142  RH  079%=      5-min Rain = 0
KAM3 180701Z 20012KT 18/14 A3002 RMK A01 T01800143  RH  079%=      5-min Rain = 0
KAM3 180702Z 19014KT 18/14 A3002 RMK A01 T01790143  RH  079%=      5-min Rain = 0
KAM3 180703Z 20015KT 18/14 A3002 RMK A01 T01790143  RH  079%=      5-min Rain = 0
KAM3 180704Z 19014KT 18/14 A3001 RMK A01 T01790143  RH  079%=      5-min Rain = 0
KAM3 180705Z 20011G16KT 18/15 A3001 RMK A01 T01790145  RH  081%=      5-min Rain = 0
KAM3 180706Z 20013KT 18/14 A3001 RMK A01 T01780144  RH  081%=      5-min Rain = 0
KAM3 180707Z 20013G19KT 18/14 A3001 RMK A01 T01780144  RH  081%=      5-min Rain = 0
KAM3 180708Z 19015KT 18/14 A3001 RMK A01 T01780144  RH  081%=      5-min Rain = 0
KAM3 180709Z 19014KT 18/14 A3001 RMK A01 T01780144  RH  081%=      5-min Rain = 0
KAM3 180710Z 18013KT 18/14 A3001 RMK A01 T01780144  RH  081%=      5-min Rain = 0
KAM3 180711Z 19011KT 18/14 A3001 RMK A01 T01770144  RH  081%=      5-min Rain = 0
KAM3 180712Z 19014KT 18/14 A30 RMK A01 T01770144  RH  081%=      5-min Rain = 0
KAM3 180713Z 18012KT 18/14 A30 RMK A01 T01770144  RH  081%=      5-min Rain = 0
KAM3 180714Z 18011KT 18/15 A30 RMK A01 T01770145  RH  082%=      5-min Rain = 0
KAM3 180715Z 18013KT 18/15 A30 RMK A01 T01760146  RH  082%=      5-min Rain = 0
KAM3 180716Z 18012KT 18/15 A30 RMK A01 T01760145  RH  082%=      5-min Rain = 0
KAM3 180717Z 18013KT 18/15 A30 RMK A01 T01760146  RH  082%=      5-min Rain = 0
KAM3 180718Z 18012KT 18/15 A30 RMK A01 T01760145  RH  082%=      5-min Rain = 0
KAM3 180719Z 18013KT 18/15 A30 RMK A01 T01760145  RH  082%=      5-min Rain = 0
KAM3 180720Z 18014KT 18/15 A2999 RMK A01 T01760146  RH  082%=      5-min Rain = 0
KAM3 180721Z 18012KT 18/15 A2999 RMK A01 T01760146  RH  082%=      5-min Rain = 0
KAM3 180722Z 18011KT 18/15 A2999 RMK A01 T01760146  RH  082%=      5-min Rain = 0
KAM3 180723Z 18014KT 18/15 A30 RMK A01 T01760145  RH  082%=      5-min Rain = 0
KAM3 180724Z 18012KT 18/15 A30 RMK A01 T01760145  RH  082%=      5-min Rain = 0
KAM3 180725Z 18014KT 18/15 A30 RMK A01 T01760146  RH  083%=      5-min Rain = 0
KAM3 180726Z 18014KT 18/15 A30 RMK A01 T01760146  RH  083%=      5-min Rain = 0
KAM3 180727Z 18013KT 18/15 A30 RMK A01 T01760147  RH  083%=      5-min Rain = 0
KAM3 180728Z 18012KT 18/15 A30 RMK A01 T01760147  RH  083%=      5-min Rain = 0
KAM3 180729Z 18013G18KT 18/15 A30 RMK A01 T01760146  RH  082%=      5-min Rain = 0
KAM3 180730Z 18013KT 18/15 A30 RMK A01 T01760145  RH  082%=      5-min Rain = 0
KAM3 180731Z 18013KT 18/15 A2999 RMK A01 T01760145  RH  082%=      5-min Rain = 0
KAM3 180732Z 18013KT 18/14 A2999 RMK A01 T01770144  RH  081%=      5-min Rain = 0
KAM3 180733Z 18015KT 18/15 A2999 RMK A01 T01770145  RH  082%=      5-min Rain = 0
KAM3 180734Z 18013KT 18/14 A2999 RMK A01 T01770143  RH  081%=      5-min Rain = 0
KAM3 180735Z 18015KT 18/14 A2999 RMK A01 T01770143  RH  080%=      5-min Rain = 0
KAM3 180736Z 18015KT 18/14 A2999 RMK A01 T01780143  RH  080%=      5-min Rain = 0
KAM3 180737Z 18014KT 18/14 A2999 RMK A01 T01780143  RH  080%=      5-min Rain = 0
KAM3 180738Z 18013KT 18/14 A2999 RMK A01 T01780142  RH  080%=      5-min Rain = 0
KAM3 180739Z 18012KT 18/14 A2999 RMK A01 T01780143  RH  080%=      5-min Rain = 0
KAM3 180740Z 18013KT 18/14 A2999 RMK A01 T01780143  RH  080%=      5-min Rain = 0
KAM3 180741Z 18013KT 18/14 A2999 RMK A01 T01780143  RH  080%=      5-min Rain = 0
KAM3 180742Z 18015KT 18/14 A2999 RMK A01 T01780142  RH  080%=      5-min Rain = 0
KAM3 180743Z 18013KT 18/14 A2999 RMK A01 T01780141  RH  079%=      5-min Rain = 0
KAM3 180744Z 18014KT 18/14 A2999 RMK A01 T01790141  RH  079%=      5-min Rain = 0
KAM3 180745Z 18013KT 18/14 A2999 RMK A01 T01790142  RH  079%=      5-min Rain = 0
KAM3 180746Z 18014KT 18/14 A2999 RMK A01 T01780143  RH  080%=      5-min Rain = 0
KAM3 180747Z 18013KT 18/14 A2999 RMK A01 T01780141  RH  079%=      5-min Rain = 0
KAM3 180748Z 18012KT 18/14 A2999 RMK A01 T01780142  RH  079%=      5-min Rain = 0
KAM3 180749Z 18013KT 18/14 A2999 RMK A01 T01780142  RH  080%=      5-min Rain = 0
KAM3 180750Z 18012KT 18/14 A2999 RMK A01 T01780142  RH  080%=      5-min Rain = 0
KAM3 180751Z 18012KT 18/14 A2999 RMK A01 T01780141  RH  079%=      5-min Rain = 0
KAM3 180752Z 18012KT 18/14 A2999 RMK A01 T01780141  RH  079%=      5-min Rain = 0
KAM3 180753Z 18012KT 18/14 A2999 RMK A01 T01780141  RH  079%=      5-min Rain = 0
KAM3 180754Z 18012KT 18/14 A2999 RMK A01 T01780141  RH  079%=      5-min Rain = 0
KAM3 180755Z 18013G18KT 18/14 A2999 RMK A01 T01780140  RH  078%=      5-min Rain = 0
KAM3 180756Z 18012KT 18/14 A2999 RMK A01 T01780140  RH  079%=      5-min Rain = 0
KAM3 180757Z 18013G18KT 18/14 A2999 RMK A01 T01780139  RH  078%=      5-min Rain = 0
KAM3 180758Z 18011KT 18/14 A2999 RMK A01 T01780138  RH  077%=      5-min Rain = 0
KAM3 180759Z 18013KT 18/14 A2998 RMK A01 T01780138  RH  077%=      5-min Rain = 0
KAM3 180800Z 18013KT 18/14 A2998 RMK A01 T01790138  RH  077%=      5-min Rain = 0
KAM3 180801Z 19012KT 18/14 A2999 RMK A01 T01790138  RH  077%=      5-min Rain = 0
KAM3 180802Z 18012KT 18/14 A2999 RMK A01 T01790139  RH  077%=      5-min Rain = 0
KAM3 180803Z 19010KT 18/14 A2999 RMK A01 T01790138  RH  077%=      5-min Rain = 0
KAM3 180804Z 19011KT 18/14 A2999 RMK A01 T01790139  RH  077%=      5-min Rain = 0
KAM3 180805Z 19011KT 18/14 A2999 RMK A01 T01790138  RH  077%=      5-min Rain = 0
KAM3 180806Z 19011KT 18/14 A2999 RMK A01 T01790138  RH  077%=      5-min Rain = 0
KAM3 180807Z 19010KT 18/14 A2999 RMK A01 T01790139  RH  077%=      5-min Rain = 0
KAM3 180808Z 19010KT 18/14 A2999 RMK A01 T01790139  RH  077%=      5-min Rain = 0
KAM3 180809Z 19010KT 18/14 A2999 RMK A01 T01790139  RH  078%=      5-min Rain = 0
KAM3 180810Z 19010KT 18/14 A2999 RMK A01 T01780138  RH  077%=      5-min Rain = 0
KAM3 180811Z 20010KT 18/14 A2999 RMK A01 T01790138  RH  077%=      5-min Rain = 0
KAM3 180812Z 20010KT 18/14 A2999 RMK A01 T01790138  RH  077%=      5-min Rain = 0
KAM3 180813Z 19011KT 18/14 A2999 RMK A01 T01790136  RH  076%=      5-min Rain = 0
KAM3 180814Z 19011KT 18/14 A2999 RMK A01 T01800136  RH  075%=      5-min Rain = 0
KAM3 180815Z 19011KT 18/14 A2999 RMK A01 T01800137  RH  076%=      5-min Rain = 0
KAM3 180816Z 19011KT 18/14 A2999 RMK A01 T01800136  RH  075%=      5-min Rain = 0
KAM3 180817Z 19012KT 18/14 A2999 RMK A01 T01800136  RH  075%=      5-min Rain = 0
KAM3 180818Z 19011KT 18/14 A2999 RMK A01 T01800135  RH  075%=      5-min Rain = 0
KAM3 180819Z 19010KT 18/14 A2999 RMK A01 T01800135  RH  075%=      5-min Rain = 0
KAM3 180820Z 19009KT 18/14 A2999 RMK A01 T01800136  RH  075%=      5-min Rain = 0
KAM3 180821Z 19012KT 18/14 A2999 RMK A01 T01800135  RH  075%=      5-min Rain = 0
KAM3 180822Z 19012KT 18/13 A2999 RMK A01 T01800133  RH  074%=      5-min Rain = 0
KAM3 180823Z 20012KT 18/13 A2999 RMK A01 T01810132  RH  073%=      5-min Rain = 0
KAM3 180824Z 20011KT 18/13 A2999 RMK A01 T01820133  RH  073%=      5-min Rain = 0
KAM3 180825Z 20011KT 18/13 A2999 RMK A01 T01820132  RH  073%=      5-min Rain = 0
KAM3 180826Z 20010KT 18/13 A2999 RMK A01 T01820132  RH  073%=      5-min Rain = 0
KAM3 180827Z 20012KT 18/13 A2999 RMK A01 T01820132  RH  073%=      5-min Rain = 0
KAM3 180828Z 20012KT 18/13 A2999 RMK A01 T01820131  RH  072%=      5-min Rain = 0
KAM3 180829Z 20013KT 18/13 A2999 RMK A01 T01830131  RH  072%=      5-min Rain = 0
KAM3 180830Z 20013KT 18/13 A2999 RMK A01 T01830130  RH  071%=      5-min Rain = 0
KAM3 180831Z 20011KT 18/13 A2999 RMK A01 T01840131  RH  071%=      5-min Rain = 0
KAM3 180832Z 20012KT 18/13 A2999 RMK A01 T01830131  RH  072%=      5-min Rain = 0
KAM3 180833Z 19009KT 18/13 A2998 RMK A01 T01830131  RH  072%=      5-min Rain = 0
KAM3 180834Z 20010KT 18/13 A2998 RMK A01 T01820132  RH  072%=      5-min Rain = 0
KAM3 180835Z 20012KT 18/13 A2998 RMK A01 T01820131  RH  072%=      5-min Rain = 0
KAM3 180836Z 19011KT 18/13 A2998 RMK A01 T01820131  RH  072%=      5-min Rain = 0
KAM3 180837Z 19010KT 18/13 A2998 RMK A01 T01820131  RH  072%=      5-min Rain = 0
KAM3 180838Z 20011KT 18/13 A2998 RMK A01 T01820130  RH  072%=      5-min Rain = 0
KAM3 180839Z 20012KT 18/13 A2998 RMK A01 T01820130  RH  071%=      5-min Rain = 0
KAM3 180840Z 19011KT 18/13 A2998 RMK A01 T01820130  RH  071%=      5-min Rain = 0
KAM3 180841Z 19010G15KT 18/13 A2998 RMK A01 T01820130  RH  072%=      5-min Rain = 0
KAM3 180842Z 19013KT 18/13 A2998 RMK A01 T01820130  RH  071%=      5-min Rain = 0
KAM3 180843Z 19013KT 18/13 A2998 RMK A01 T01820129  RH  071%=      5-min Rain = 0
KAM3 180844Z 19011KT 18/13 A2998 RMK A01 T01820129  RH  071%=      5-min Rain = 0
KAM3 180845Z 18013KT 18/13 A2998 RMK A01 T01830130  RH  071%=      5-min Rain = 0
KAM3 180846Z 18011KT 18/13 A2997 RMK A01 T01820130  RH  071%=      5-min Rain = 0
KAM3 180847Z 19011KT 18/13 A2997 RMK A01 T01820130  RH  071%=      5-min Rain = 0
KAM3 180848Z 19012KT 18/13 A2997 RMK A01 T01820129  RH  071%=      5-min Rain = 0
KAM3 180849Z 18011KT 18/13 A2997 RMK A01 T01820129  RH  071%=      5-min Rain = 0
KAM3 180850Z 18011KT 18/13 A2997 RMK A01 T01820130  RH  071%=      5-min Rain = 0
KAM3 180851Z 19012KT 18/13 A2997 RMK A01 T01820129  RH  071%=      5-min Rain = 0
KAM3 180852Z 18012KT 18/13 A2997 RMK A01 T01820129  RH  071%=      5-min Rain = 0
KAM3 180853Z 18011KT 18/13 A2997 RMK A01 T01820128  RH  071%=      5-min Rain = 0
KAM3 180854Z 19011KT 18/13 A2997 RMK A01 T01820128  RH  071%=      5-min Rain = 0
KAM3 180855Z 19011KT 18/13 A2997 RMK A01 T01820128  RH  071%=      5-min Rain = 0
KAM3 180856Z 18010KT 18/13 A2997 RMK A01 T01820129  RH  071%=      5-min Rain = 0
KAM3 180857Z 18009KT 18/13 A2997 RMK A01 T01810128  RH  071%=      5-min Rain = 0
KAM3 180858Z 19010KT 18/13 A2997 RMK A01 T01820128  RH  071%=      5-min Rain = 0
KAM3 180859Z 19010KT 18/13 A2997 RMK A01 T01810128  RH  071%=      5-min Rain = 0
KAM3 180900Z 19011KT 18/13 A2997 RMK A01 T01810128  RH  071%=      5-min Rain = 0
KAM3 180901Z 18010KT 18/13 A2997 RMK A01 T01810127  RH  071%=      5-min Rain = 0
KAM3 180902Z 18009KT 18/13 A2996 RMK A01 T01820128  RH  071%=      5-min Rain = 0
KAM3 180903Z 19010KT 18/13 A2996 RMK A01 T01810128  RH  071%=      5-min Rain = 0
KAM3 180904Z 19009KT 18/13 A2996 RMK A01 T01810128  RH  071%=      5-min Rain = 0
KAM3 180905Z 19009KT 18/13 A2996 RMK A01 T01810128  RH  071%=      5-min Rain = 0
KAM3 180906Z 19010KT 18/13 A2996 RMK A01 T01810128  RH  071%=      5-min Rain = 0
KAM3 180907Z 19010KT 18/13 A2996 RMK A01 T01800128  RH  071%=      5-min Rain = 0
KAM3 180908Z 19009KT 18/13 A2996 RMK A01 T01800128  RH  072%=      5-min Rain = 0
KAM3 180909Z 19009KT 18/13 A2996 RMK A01 T01800128  RH  072%=      5-min Rain = 0
KAM3 180910Z 19009KT 18/13 A2996 RMK A01 T01800128  RH  072%=      5-min Rain = 0
KAM3 180911Z 19009KT 18/13 A2996 RMK A01 T01800128  RH  072%=      5-min Rain = 0
KAM3 180912Z 19007KT 18/13 A2996 RMK A01 T01800128  RH  072%=      5-min Rain = 0
KAM3 180913Z 19008KT 18/13 A2996 RMK A01 T01790128  RH  072%=      5-min Rain = 0
KAM3 180914Z 20008KT 18/13 A2996 RMK A01 T01790128  RH  072%=      5-min Rain = 0
KAM3 180915Z 20007KT 18/13 A2996 RMK A01 T01790128  RH  072%=      5-min Rain = 0
KAM3 180916Z 21006KT 18/13 A2996 RMK A01 T01790129  RH  072%=      5-min Rain = 0
KAM3 180917Z 21006KT 18/13 A2997 RMK A01 T01780128  RH  073%=      5-min Rain = 0
KAM3 180918Z 23005KT 18/13 A2997 RMK A01 T01770128  RH  073%=      5-min Rain = 0
KAM3 180919Z 25005KT 18/13 A2997 RMK A01 T01770129  RH  073%=      5-min Rain = 0
KAM3 180920Z 27006KT 18/13 A2997 RMK A01 T01760130  RH  074%=      5-min Rain = 0
KAM3 180921Z 28006KT 17/13 A2997 RMK A01 T01740131  RH  076%=      5-min Rain = 0
KAM3 180922Z 28006KT 17/13 A2997 RMK A01 T01720132  RH  077%=      5-min Rain = 0
KAM3 180923Z 29006KT 17/13 A2997 RMK A01 T01700133  RH  079%=      5-min Rain = 0
KAM3 180924Z 29006KT 17/13 A2997 RMK A01 T01680134  RH  080%=      5-min Rain = 0
KAM3 180925Z 28006KT 17/14 A2997 RMK A01 T01670136  RH  082%=      5-min Rain = 0
KAM3 180926Z 27006KT 17/14 A2997 RMK A01 T01650135  RH  082%=      5-min Rain = 0
KAM3 180927Z 27007KT 17/13 A2997 RMK A01 T01650134  RH  082%=      5-min Rain = 0
KAM3 180928Z 27006KT 17/13 A2997 RMK A01 T01660134  RH  082%=      5-min Rain = 0
KAM3 180929Z 26006KT 17/13 A2997 RMK A01 T01660134  RH  082%=      5-min Rain = 0
KAM3 180930Z 26006KT 17/13 A2997 RMK A01 T01660131  RH  080%=      5-min Rain = 0
KAM3 180931Z 26006KT 17/13 A2997 RMK A01 T01680131  RH  079%=      5-min Rain = 0
KAM3 180932Z 26007KT 17/13 A2997 RMK A01 T01690132  RH  079%=      5-min Rain = 0
KAM3 180933Z 26007KT 17/13 A2998 RMK A01 T01690133  RH  080%=      5-min Rain = 0
KAM3 180934Z 27007KT 17/13 A2998 RMK A01 T01680134  RH  080%=      5-min Rain = 0
KAM3 180935Z 27008KT 17/13 A2998 RMK A01 T01670134  RH  081%=      5-min Rain = 0
KAM3 180936Z 26008KT 17/13 A2998 RMK A01 T01660132  RH  081%=      5-min Rain = 0
KAM3 180937Z 26007KT 17/13 A2998 RMK A01 T01660133  RH  081%=      5-min Rain = 0
KAM3 180938Z 25007KT 17/13 A2998 RMK A01 T01660133  RH  081%=      5-min Rain = 0
KAM3 180939Z 25007KT 17/13 A2998 RMK A01 T01660133  RH  081%=      5-min Rain = 0
KAM3 180940Z 25007KT 17/13 A2998 RMK A01 T01670134  RH  081%=      5-min Rain = 0
KAM3 180941Z 25006KT 17/13 A2997 RMK A01 T01660134  RH  081%=      5-min Rain = 0
KAM3 180942Z 25006KT 17/13 A2997 RMK A01 T01660134  RH  081%=      5-min Rain = 0
KAM3 180943Z 25005KT 17/13 A2997 RMK A01 T01660134  RH  082%=      5-min Rain = 0
KAM3 180944Z 25006KT 17/14 A2997 RMK A01 T01650135  RH  082%=      5-min Rain = 0
KAM3 180945Z 26006KT 16/14 A2997 RMK A01 T01640135  RH  083%=      5-min Rain = 0
KAM3 180946Z 26006KT 16/14 A2997 RMK A01 T01630136  RH  084%=      5-min Rain = 0
KAM3 180947Z 27006KT 16/14 A2997 RMK A01 T01620136  RH  084%=      5-min Rain = 0
KAM3 180948Z 28006KT 16/14 A2997 RMK A01 T01610137  RH  086%=      5-min Rain = 0
KAM3 180949Z 28006KT 16/14 A2997 RMK A01 T01600138  RH  087%=      5-min Rain = 0
KAM3 180950Z 28006KT 16/14 A2997 RMK A01 T01590139  RH  088%=      5-min Rain = 0
KAM3 180951Z 28006KT 16/14 A2998 RMK A01 T01590140  RH  089%=      5-min Rain = 0
KAM3 180952Z 28006KT 16/14 A2998 RMK A01 T01580141  RH  090%=      5-min Rain = 0
KAM3 180953Z 28006KT 16/14 A2998 RMK A01 T01580142  RH  090%=      5-min Rain = 0
KAM3 180954Z 27007KT 16/14 A2998 RMK A01 T01580143  RH  091%=      5-min Rain = 0
KAM3 180955Z 27006KT 16/14 A2998 RMK A01 T01580144  RH  091%=      5-min Rain = 0
KAM3 180956Z 27006KT 16/14 A2998 RMK A01 T01580143  RH  091%=      5-min Rain = 0
KAM3 180957Z 27006KT 16/14 A2998 RMK A01 T01580141  RH  090%=      5-min Rain = 0
KAM3 180958Z 27006KT 16/14 A2998 RMK A01 T01590141  RH  090%=      5-min Rain = 0
KAM3 180959Z 27007KT 16/14 A2998 RMK A01 T01590142  RH  090%=      5-min Rain = 0
KAM3 181000Z 27007KT 16/14 A2998 RMK A01 T01590142  RH  090%=      5-min Rain = 0
KAM3 181001Z 27007KT 16/14 A2998 RMK A01 T01590142  RH  090%=      5-min Rain = 0
KAM3 181002Z 27007KT 16/14 A2998 RMK A01 T01590142  RH  090%=      5-min Rain = 0
KAM3 181003Z 27007KT 16/14 A2998 RMK A01 T01590142  RH  090%=      5-min Rain = 0
KAM3 181004Z 27006KT 16/14 A2998 RMK A01 T01590142  RH  090%=      5-min Rain = 0
KAM3 181005Z 27006KT 16/14 A2998 RMK A01 T01590142  RH  090%=      5-min Rain = 0
KAM3 181006Z 27006KT 16/14 A2998 RMK A01 T01580143  RH  091%=      5-min Rain = 0
KAM3 181007Z 28006KT 16/14 A2998 RMK A01 T01580144  RH  091%=      5-min Rain = 0
KAM3 181008Z 28007KT 16/15 A2998 RMK A01 T01570145  RH  092%=      5-min Rain = 0
KAM3 181009Z 28007KT 16/15 A2999 RMK A01 T01570147  RH  094%=      5-min Rain = 0
KAM3 181010Z 28006KT 16/15 A2999 RMK A01 T01560147  RH  094%=      5-min Rain = 0
KAM3 181011Z 27006KT 16/15 A2999 RMK A01 T01570148  RH  095%=      5-min Rain = 0
KAM3 181012Z 27006KT 16/15 A2999 RMK A01 T01560148  RH  095%=      5-min Rain = 0
KAM3 181013Z 27006KT 16/15 A2998 RMK A01 T01560148  RH  095%=      5-min Rain = 0
KAM3 181014Z 27005KT 16/15 A2998 RMK A01 T01560147  RH  094%=      5-min Rain = 0
KAM3 181015Z 26006KT 16/15 A2998 RMK A01 T01560146  RH  094%=      5-min Rain = 0
KAM3 181016Z 26006KT 16/15 A2998 RMK A01 T01570145  RH  092%=      5-min Rain = 0
KAM3 181017Z 25005KT 16/14 A2998 RMK A01 T01570143  RH  091%=      5-min Rain = 0
KAM3 181018Z 25004KT 16/14 A2998 RMK A01 T01580142  RH  090%=      5-min Rain = 0
KAM3 181019Z 26005KT 16/14 A2998 RMK A01 T01580141  RH  090%=      5-min Rain = 0
KAM3 181020Z 26005KT 16/14 A2998 RMK A01 T01580142  RH  090%=      5-min Rain = 0
KAM3 181021Z 26005KT 16/14 A2998 RMK A01 T01580142  RH  090%=      5-min Rain = 0
KAM3 181022Z 26005KT 16/14 A2999 RMK A01 T01580142  RH  090%=      5-min Rain = 0
KAM3 181023Z 27005KT 16/14 A2999 RMK A01 T01580143  RH  091%=      5-min Rain = 0
KAM3 181024Z 27004KT 16/14 A2999 RMK A01 T01570143  RH  091%=      5-min Rain = 0
KAM3 181025Z 27004KT 16/14 A2999 RMK A01 T01570144  RH  092%=      5-min Rain = 0
KAM3 181026Z 27004KT 16/14 A2999 RMK A01 T01560144  RH  092%=      5-min Rain = 0
KAM3 181027Z 27004KT 16/15 A2999 RMK A01 T01560145  RH  093%=      5-min Rain = 0
KAM3 181028Z 27003KT 16/14 A2999 RMK A01 T01560144  RH  093%=      5-min Rain = 0
KAM3 181029Z 27002KT 16/14 A2999 RMK A01 T01560144  RH  092%=      5-min Rain = 0
KAM3 181030Z 28002KT 16/14 A2999 RMK A01 T01560144  RH  092%=      5-min Rain = 0
KAM3 181031Z 28002KT 16/14 A2999 RMK A01 T01560143  RH  092%=      5-min Rain = 0
KAM3 181032Z 29002KT 16/14 A2999 RMK A01 T01560143  RH  092%=      5-min Rain = 0
KAM3 181033Z 30003KT 16/14 A2999 RMK A01 T01560143  RH  092%=      5-min Rain = 0
KAM3 181034Z 30003KT 16/14 A2999 RMK A01 T01560143  RH  092%=      5-min Rain = 0
KAM3 181035Z 31004KT 16/14 A2999 RMK A01 T01560143  RH  092%=      5-min Rain = 0
KAM3 181036Z 32004KT 16/14 A2999 RMK A01 T01560144  RH  092%=      5-min Rain = 0
KAM3 181037Z 33004KT 16/14 A2999 RMK A01 T01560144  RH  093%=      5-min Rain = 0
KAM3 181038Z 32004KT 16/15 A2999 RMK A01 T01550145  RH  093%=      5-min Rain = 0
KAM3 181039Z 31004KT 16/15 A2999 RMK A01 T01550146  RH  094%=      5-min Rain = 0
KAM3 181040Z 31003KT 16/15 A2999 RMK A01 T01550145  RH  093%=      5-min Rain = 0
KAM3 181041Z 30003KT 16/14 A2999 RMK A01 T01560143  RH  092%=      5-min Rain = 0
KAM3 181042Z 31003KT 16/14 A2999 RMK A01 T01570142  RH  091%=      5-min Rain = 0
KAM3 181043Z 28003KT 16/14 A2999 RMK A01 T01570142  RH  091%=      5-min Rain = 0
KAM3 181044Z 29003KT 16/14 A2999 RMK A01 T01570142  RH  090%=      5-min Rain = 0
KAM3 181045Z 29003KT 16/14 A2999 RMK A01 T01580142  RH  090%=      5-min Rain = 0
KAM3 181046Z 28005KT 16/14 A30 RMK A01 T01580142  RH  090%=      5-min Rain = 0
KAM3 181047Z 29004KT 16/14 A30 RMK A01 T01580142  RH  090%=      5-min Rain = 0
KAM3 181048Z 29004KT 16/14 A30 RMK A01 T01590143  RH  091%=      5-min Rain = 0
KAM3 181049Z 30004KT 16/14 A30 RMK A01 T01580144  RH  091%=      5-min Rain = 0
KAM3 181050Z 30004KT 16/15 A30 RMK A01 T01570145  RH  092%=      5-min Rain = 0
KAM3 181051Z 29004KT 16/15 A30 RMK A01 T01560147  RH  094%=      5-min Rain = 0
KAM3 181052Z 29004KT 16/15 A30 RMK A01 T01560148  RH  095%=      5-min Rain = 0
KAM3 181053Z 28004KT 16/15 A30 RMK A01 T01550150  RH  096%=      5-min Rain = 0
KAM3 181054Z 28004KT 16/15 A30 RMK A01 T01550152  RH  098%=      5-min Rain = 0
KAM3 181055Z 29004KT 15/15 A30 RMK A01 T01540153  RH  099%=      5-min Rain = 0
KAM3 181056Z 30005KT 15/15 A30 RMK A01 T01540154  RH  100%=      5-min Rain = 0
KAM3 181057Z 30005KT 15/15 A30 RMK A01 T01530153  RH  100%=      5-min Rain = 0
KAM3 181058Z 30005KT 15/15 A30 RMK A01 T01530153  RH  100%=      5-min Rain = 0
KAM3 181059Z 30005KT 15/15 A30 RMK A01 T01530153  RH  100%=      5-min Rain = 0
KAM3 181100Z 31005KT 15/15 A30 RMK A01 T01530153  RH  100%=      5-min Rain = 0
KAM3 181101Z 31005KT 15/15 A30 RMK A01 T01530153  RH  100%=      5-min Rain = 0
KAM3 181102Z 31005KT 15/15 A30 RMK A01 T01530153  RH  100%=      5-min Rain = 0
KAM3 181103Z 31005KT 15/15 A30 RMK A01 T01530153  RH  100%=      5-min Rain = 0
KAM3 181104Z 31005KT 15/15 A30 RMK A01 T01520152  RH  100%=      5-min Rain = 0
KAM3 181105Z 31005KT 15/15 A30 RMK A01 T01520152  RH  100%=      5-min Rain = 0
KAM3 181106Z 31005KT 15/15 A30 RMK A01 T01510152  RH  100%=      5-min Rain = 0
KAM3 181107Z 32004KT 15/15 A3001 RMK A01 T01510151  RH  100%=      5-min Rain = 0
KAM3 181108Z 33004KT 15/15 A3001 RMK A01 T01510151  RH  100%=      5-min Rain = 0
KAM3 181109Z 33004KT 15/15 A3001 RMK A01 T01510151  RH  100%=      5-min Rain = 0
KAM3 181110Z 34003KT 15/15 A3001 RMK A01 T01500150  RH  100%=      5-min Rain = 0
KAM3 181111Z 34003KT 15/15 A3001 RMK A01 T01500150  RH  100%=      5-min Rain = 0
KAM3 181112Z 33003KT 15/15 A3001 RMK A01 T01490149  RH  100%=      5-min Rain = 0
KAM3 181113Z 33003KT 15/15 A3001 RMK A01 T01490150  RH  100%=      5-min Rain = 0
KAM3 181114Z 34003KT 15/15 A3001 RMK A01 T01490149  RH  100%=      5-min Rain = 0
KAM3 181115Z 34004KT 15/15 A3001 RMK A01 T01490150  RH  100%=      5-min Rain = 0
KAM3 181116Z 34004KT 15/15 A3001 RMK A01 T01490149  RH  100%=      5-min Rain = 0
KAM3 181117Z 34005KT 15/15 A3001 RMK A01 T01490149  RH  100%=      5-min Rain = 0
KAM3 181118Z 34004KT 15/15 A3001 RMK A01 T01500150  RH  100%=      5-min Rain = 0
KAM3 181119Z 34004KT 15/15 A3001 RMK A01 T01500150  RH  100%=      5-min Rain = 0
KAM3 181120Z 33005KT 15/15 A3001 RMK A01 T01490149  RH  100%=      5-min Rain = 0
KAM3 181121Z 33005KT 15/15 A3001 RMK A01 T01480148  RH  100%=      5-min Rain = 0
KAM3 181122Z 33005KT 15/15 A3001 RMK A01 T01480148  RH  100%=      5-min Rain = 0
KAM3 181123Z 33005KT 15/15 A3001 RMK A01 T01470148  RH  100%=      5-min Rain = 0
KAM3 181124Z 33005KT 15/15 A3001 RMK A01 T01480148  RH  100%=      5-min Rain = 0
KAM3 181125Z 33005KT 15/15 A3001 RMK A01 T01470148  RH  100%=      5-min Rain = 0
KAM3 181126Z 33005KT 15/15 A3001 RMK A01 T01470147  RH  100%=      5-min Rain = 0
KAM3 181127Z 33004KT 15/15 A3001 RMK A01 T01470147  RH  100%=      5-min Rain = 0
KAM3 181128Z 33004KT 15/15 A3001 RMK A01 T01470147  RH  100%=      5-min Rain = 0
KAM3 181129Z 33004KT 15/15 A3001 RMK A01 T01470147  RH  100%=      5-min Rain = 0
KAM3 181130Z 33004KT 15/15 A3001 RMK A01 T01470147  RH  100%=      5-min Rain = 0
KAM3 181131Z 33004KT 15/15 A3001 RMK A01 T01470147  RH  100%=      5-min Rain = 0
KAM3 181132Z 33004KT 15/15 A3001 RMK A01 T01470147  RH  100%=      5-min Rain = 0
KAM3 181133Z 33004KT 15/15 A3001 RMK A01 T01470147  RH  100%=      5-min Rain = 0
KAM3 181134Z 33003KT 15/15 A3001 RMK A01 T01470147  RH  100%=      5-min Rain = 0
KAM3 181135Z 33003KT 15/15 A3001 RMK A01 T01480148  RH  100%=      5-min Rain = 0
KAM3 181136Z 33003KT 15/15 A3001 RMK A01 T01480148  RH  100%=      5-min Rain = 0
KAM3 181137Z 32003KT 15/15 A3001 RMK A01 T01480148  RH  100%=      5-min Rain = 0
KAM3 181138Z 31003KT 15/15 A3001 RMK A01 T01480148  RH  100%=      5-min Rain = 0
KAM3 181139Z 31004KT 15/15 A3001 RMK A01 T01490149  RH  100%=      5-min Rain = 0
KAM3 181140Z 31003KT 15/15 A3001 RMK A01 T01490149  RH  100%=      5-min Rain = 0
KAM3 181141Z 30003KT 15/15 A3001 RMK A01 T01500150  RH  100%=      5-min Rain = 0
KAM3 181142Z 30003KT 15/15 A3001 RMK A01 T01490150  RH  100%=      5-min Rain = 0
KAM3 181143Z 30003KT 15/15 A3001 RMK A01 T01500150  RH  100%=      5-min Rain = 0
KAM3 181144Z 31002KT 15/15 A3001 RMK A01 T01500150  RH  100%=      5-min Rain = 0
KAM3 181145Z 32002KT 15/15 A3001 RMK A01 T01510151  RH  100%=      5-min Rain = 0
KAM3 181146Z 31002KT 15/15 A3001 RMK A01 T01510151  RH  100%=      5-min Rain = 0
KAM3 181147Z 31002KT 15/15 A3001 RMK A01 T01510151  RH  100%=      5-min Rain = 0
KAM3 181148Z 30002KT 15/15 A3001 RMK A01 T01510152  RH  100%=      5-min Rain = 0
KAM3 181149Z 30002KT 15/15 A3001 RMK A01 T01520152  RH  100%=      5-min Rain = 0
KAM3 181150Z 30002KT 15/15 A3001 RMK A01 T01520152  RH  100%=      5-min Rain = 0
KAM3 181151Z 30002KT 15/15 A3001 RMK A01 T01520152  RH  100%=      5-min Rain = 0
KAM3 181152Z 30002KT 15/15 A3001 RMK A01 T01530153  RH  100%=      5-min Rain = 0
KAM3 181153Z 30002KT 15/15 A3001 RMK A01 T01530153  RH  100%=      5-min Rain = 0
KAM3 181154Z 30002KT 15/15 A3001 RMK A01 T01530153  RH  100%=      5-min Rain = 0
KAM3 181155Z 30002KT 15/15 A3001 RMK A01 T01530153  RH  100%=      5-min Rain = 0
KAM3 181156Z 30002KT 15/15 A3001 RMK A01 T01530153  RH  100%=      5-min Rain = 0
KAM3 181157Z 30002KT 15/15 A3001 RMK A01 T01530153  RH  100%=      5-min Rain = 0
KAM3 181158Z 30002KT 15/15 A3001 RMK A01 T01530153  RH  100%=      5-min Rain = 0
KAM3 181159Z 30002KT 15/15 A3001 RMK A01 T01530153  RH  100%=      5-min Rain = 0
KAM3 181200Z 31002KT 15/15 A3001 RMK A01 T01530153  RH  100%=      5-min Rain = 0
KAM3 181201Z 31002KT 15/15 A3001 RMK A01 T01530153  RH  100%=      5-min Rain = 0
KAM3 181202Z 32002KT 15/15 A3001 RMK A01 T01540154  RH  100%=      5-min Rain = 0
KAM3 181203Z 32002KT 15/15 A3001 RMK A01 T01540154  RH  100%=      5-min Rain = 0
KAM3 181204Z 33003KT 16/16 A3001 RMK A01 T01550155  RH  100%=      5-min Rain = 0
KAM3 181205Z 33003KT 16/16 A3001 RMK A01 T01550155  RH  100%=      5-min Rain = 0
KAM3 181206Z 33003KT 15/16 A3001 RMK A01 T01540155  RH  100%=      5-min Rain = 0
KAM3 181207Z 33003KT 15/15 A3001 RMK A01 T01540154  RH  100%=      5-min Rain = 0
KAM3 181208Z 33003KT 16/16 A3001 RMK A01 T01550155  RH  100%=      5-min Rain = 0
KAM3 181209Z 33003KT 16/16 A3001 RMK A01 T01560156  RH  100%=      5-min Rain = 0
KAM3 181210Z 33002KT 16/16 A3001 RMK A01 T01570157  RH  100%=      5-min Rain = 0
KAM3 181211Z 33002KT 16/16 A3001 RMK A01 T01590159  RH  100%=      5-min Rain = 0
KAM3 181212Z 33002KT 16/16 A3001 RMK A01 T01600158  RH  099%=      5-min Rain = 0
KAM3 181213Z 32002KT 16/16 A3001 RMK A01 T01610158  RH  098%=      5-min Rain = 0
KAM3 181214Z 31002KT 16/16 A3001 RMK A01 T01610159  RH  099%=      5-min Rain = 0
KAM3 181215Z 30002KT 16/16 A3001 RMK A01 T01600160  RH  100%=      5-min Rain = 0
KAM3 181216Z 30002KT 16/16 A3001 RMK A01 T01590159  RH  100%=      5-min Rain = 0
KAM3 181217Z 29002KT 16/16 A3001 RMK A01 T01580158  RH  100%=      5-min Rain = 0
KAM3 181218Z 29002KT 16/16 A3001 RMK A01 T01570157  RH  100%=      5-min Rain = 0
KAM3 181219Z 29002KT 16/16 A3001 RMK A01 T01560156  RH  100%=      5-min Rain = 0
KAM3 181220Z 28002KT 16/16 A3001 RMK A01 T01560156  RH  100%=      5-min Rain = 0
KAM3 181221Z 28002KT 16/16 A3001 RMK A01 T01560156  RH  100%=      5-min Rain = 0
KAM3 181222Z 28002KT 16/16 A3001 RMK A01 T01560156  RH  100%=      5-min Rain = 0
KAM3 181223Z 28002KT 16/16 A3001 RMK A01 T01560156  RH  100%=      5-min Rain = 0
KAM3 181224Z 27002KT 16/16 A3001 RMK A01 T01560156  RH  100%=      5-min Rain = 0
KAM3 181225Z 26002KT 16/16 A3001 RMK A01 T01560156  RH  100%=      5-min Rain = 0
KAM3 181226Z 26002KT 16/16 A3001 RMK A01 T01560156  RH  100%=      5-min Rain = 0
KAM3 181227Z 26003KT 16/16 A3001 RMK A01 T01560156  RH  100%=      5-min Rain = 0
KAM3 181228Z 26003KT 16/16 A3001 RMK A01 T01560156  RH  100%=      5-min Rain = 0
KAM3 181229Z 26003KT 16/16 A3001 RMK A01 T01560156  RH  100%=      5-min Rain = 0
KAM3 181230Z 26003KT 16/16 A3001 RMK A01 T01560156  RH  100%=      5-min Rain = 0
KAM3 181231Z 25003KT 16/16 A3001 RMK A01 T01550156  RH  100%=      5-min Rain = 0
KAM3 181232Z 25003KT 16/16 A3001 RMK A01 T01550155  RH  100%=      5-min Rain = 0
KAM3 181233Z 25003KT 16/16 A3001 RMK A01 T01550155  RH  100%=      5-min Rain = 0
KAM3 181234Z 24003KT 16/16 A3001 RMK A01 T01550155  RH  100%=      5-min Rain = 0
KAM3 181235Z 23003KT 16/16 A3001 RMK A01 T01550155  RH  100%=      5-min Rain = 0
KAM3 181236Z 23003KT 16/16 A3001 RMK A01 T01550155  RH  100%=      5-min Rain = 0
KAM3 181237Z 23003KT 16/16 A3001 RMK A01 T01550155  RH  100%=      5-min Rain = 0
KAM3 181238Z 23003KT 16/16 A3001 RMK A01 T01560156  RH  100%=      5-min Rain = 0
KAM3 181239Z 23002KT 16/16 A3001 RMK A01 T01560156  RH  100%=      5-min Rain = 0
KAM3 181240Z 22002KT 16/16 A3001 RMK A01 T01570157  RH  100%=      5-min Rain = 0
KAM3 181241Z 21002KT 16/16 A3001 RMK A01 T01580158  RH  100%=      5-min Rain = 0
KAM3 181242Z 20002KT 16/16 A3001 RMK A01 T01590159  RH  100%=      5-min Rain = 0
KAM3 181243Z 19002KT 16/16 A3001 RMK A01 T01600160  RH  100%=      5-min Rain = 0
KAM3 181244Z 20003KT 16/16 A3001 RMK A01 T01600161  RH  100%=      5-min Rain = 0
KAM3 181245Z 20003KT 16/16 A3001 RMK A01 T01610161  RH  100%=      5-min Rain = 0
KAM3 181246Z 20003KT 16/16 A3001 RMK A01 T01620162  RH  100%=      5-min Rain = 0
KAM3 181247Z 21003KT 16/16 A3001 RMK A01 T01620163  RH  100%=      5-min Rain = 0
KAM3 181248Z 21003KT 16/16 A3001 RMK A01 T01630163  RH  100%=      5-min Rain = 0
KAM3 181249Z 21003KT 16/16 A3001 RMK A01 T01640164  RH  100%=      5-min Rain = 0
KAM3 181250Z 21003KT 16/16 A3001 RMK A01 T01640164  RH  100%=      5-min Rain = 0
KAM3 181251Z 21003KT 17/17 A3001 RMK A01 T01650165  RH  100%=      5-min Rain = 0
KAM3 181252Z 21003KT 17/17 A3001 RMK A01 T01650165  RH  100%=      5-min Rain = 0
KAM3 181253Z 21004KT 17/17 A3001 RMK A01 T01650165  RH  100%=      5-min Rain = 0
KAM3 181254Z 22004KT 17/17 A3001 RMK A01 T01650166  RH  100%=      5-min Rain = 0
KAM3 181255Z 21004KT 17/17 A3001 RMK A01 T01660166  RH  100%=      5-min Rain = 0
KAM3 181256Z 22003KT 17/17 A3001 RMK A01 T01660166  RH  100%=      5-min Rain = 0
KAM3 181257Z 22003KT 17/17 A3001 RMK A01 T01670167  RH  100%=      5-min Rain = 0
KAM3 181258Z 21004KT 17/17 A3001 RMK A01 T01670167  RH  100%=      5-min Rain = 0
KAM3 181259Z 21004KT 17/17 A3001 RMK A01 T01680168  RH  100%=      5-min Rain = 0
KAM3 181300Z 21005KT 17/17 A3001 RMK A01 T01680169  RH  100%=      5-min Rain = 0
KAM3 181301Z 21004KT 17/17 A3001 RMK A01 T01690169  RH  100%=      5-min Rain = 0
KAM3 181302Z 21004KT 17/17 A3001 RMK A01 T01690170  RH  100%=      5-min Rain = 0
KAM3 181303Z 22004KT 17/17 A3001 RMK A01 T01700170  RH  100%=      5-min Rain = 0
KAM3 181304Z 22004KT 17/17 A3001 RMK A01 T01700171  RH  100%=      5-min Rain = 0
KAM3 181305Z 22005KT 17/17 A3001 RMK A01 T01710171  RH  100%=      5-min Rain = 0
KAM3 181306Z 22005KT 17/17 A3001 RMK A01 T01710171  RH  100%=      5-min Rain = 0
KAM3 181307Z 22005KT 17/17 A3001 RMK A01 T01720172  RH  100%=      5-min Rain = 0
KAM3 181308Z 23004KT 17/17 A3001 RMK A01 T01720172  RH  100%=      5-min Rain = 0
KAM3 181309Z 23004KT 17/17 A3001 RMK A01 T01730173  RH  100%=      5-min Rain = 0
KAM3 181310Z 23005KT 17/17 A3001 RMK A01 T01740170  RH  097%=      5-min Rain = 0
KAM3 181311Z 23005KT 18/17 A3001 RMK A01 T01750168  RH  096%=      5-min Rain = 0
KAM3 181312Z 23006KT 18/17 A3001 RMK A01 T01750169  RH  096%=      5-min Rain = 0
KAM3 181313Z 23006KT 18/17 A3001 RMK A01 T01750168  RH  096%=      5-min Rain = 0
KAM3 181314Z 23005KT 18/17 A3001 RMK A01 T01750171  RH  097%=      5-min Rain = 0
KAM3 181315Z 23006KT 18/17 A3001 RMK A01 T01760170  RH  097%=      5-min Rain = 0
KAM3 181316Z 23007KT 18/16 A3001 RMK A01 T01760164  RH  093%=      5-min Rain = 0
KAM3 181317Z 23006KT 18/17 A3001 RMK A01 T01760166  RH  094%=      5-min Rain = 0
KAM3 181318Z 24006KT 18/17 A3001 RMK A01 T01760170  RH  096%=      5-min Rain = 0
KAM3 181319Z 24007KT 18/17 A3001 RMK A01 T01770167  RH  094%=      5-min Rain = 0
KAM3 181320Z 24006KT 18/17 A3001 RMK A01 T01770167  RH  094%=      5-min Rain = 0
KAM3 181321Z 24007KT 18/16 A3001 RMK A01 T01770164  RH  092%=      5-min Rain = 0
KAM3 181322Z 24008KT 18/16 A3001 RMK A01 T01770162  RH  091%=      5-min Rain = 0
KAM3 181323Z 24007KT 18/16 A3001 RMK A01 T01770163  RH  091%=      5-min Rain = 0
KAM3 181324Z 24007KT 18/17 A3001 RMK A01 T01770166  RH  093%=      5-min Rain = 0
KAM3 181325Z 24007KT 18/17 A3001 RMK A01 T01780166  RH  093%=      5-min Rain = 0
KAM3 181326Z 24008KT 18/17 A3001 RMK A01 T01790166  RH  092%=      5-min Rain = 0
KAM3 181327Z 24008KT 18/16 A3001 RMK A01 T01790164  RH  091%=      5-min Rain = 0
KAM3 181328Z 24007KT 18/16 A3001 RMK A01 T01790164  RH  091%=      5-min Rain = 0
KAM3 181329Z 24007KT 18/17 A3001 RMK A01 T01800165  RH  091%=      5-min Rain = 0
KAM3 181330Z 25008KT 18/16 A3001 RMK A01 T01800162  RH  089%=      5-min Rain = 0
KAM3 181331Z 25007KT 18/16 A3001 RMK A01 T01810161  RH  088%=      5-min Rain = 0
KAM3 181332Z 25007KT 18/16 A3001 RMK A01 T01820163  RH  089%=      5-min Rain = 0
KAM3 181333Z 25007KT 18/16 A3001 RMK A01 T01820161  RH  088%=      5-min Rain = 0
KAM3 181334Z 25007KT 18/16 A3001 RMK A01 T01830164  RH  089%=      5-min Rain = 0
KAM3 181335Z 25008KT 18/16 A3001 RMK A01 T01830158  RH  085%=      5-min Rain = 0
KAM3 181336Z 25007KT 18/16 A3001 RMK A01 T01840162  RH  087%=      5-min Rain = 0
KAM3 181337Z 24009KT 19/16 A3001 RMK A01 T01850161  RH  086%=      5-min Rain = 0
KAM3 181338Z 24009KT 18/16 A3001 RMK A01 T01840158  RH  084%=      5-min Rain = 0
KAM3 181339Z 25008KT 18/16 A3001 RMK A01 T01840158  RH  085%=      5-min Rain = 0
KAM3 181340Z 25007KT 18/16 A3001 RMK A01 T01840162  RH  087%=      5-min Rain = 0
KAM3 181341Z 25008KT 19/16 A3001 RMK A01 T01850160  RH  085%=      5-min Rain = 0
KAM3 181342Z 25008KT 19/16 A3001 RMK A01 T01850159  RH  085%=      5-min Rain = 0
KAM3 181343Z 25006KT 19/16 A3001 RMK A01 T01850159  RH  084%=      5-min Rain = 0
KAM3 181344Z 26007KT 19/16 A3001 RMK A01 T01850158  RH  084%=      5-min Rain = 0
KAM3 181345Z 25007KT 19/16 A3001 RMK A01 T01850159  RH  085%=      5-min Rain = 0
KAM3 181346Z 24006KT 19/17 A3001 RMK A01 T01860165  RH  087%=      5-min Rain = 0
KAM3 181347Z 25005KT 19/17 A3001 RMK A01 T01880168  RH  088%=      5-min Rain = 0
KAM3 181348Z 24007KT 19/16 A3001 RMK A01 T01890163  RH  085%=      5-min Rain = 0
KAM3 181349Z 24006KT 19/17 A3001 RMK A01 T01890167  RH  087%=      5-min Rain = 0
KAM3 181350Z 25005KT 19/17 A3001 RMK A01 T01900165  RH  085%=      5-min Rain = 0
KAM3 181351Z 25008KT 19/16 A3001 RMK A01 T01900158  RH  082%=      5-min Rain = 0
KAM3 181352Z 26007KT 19/16 A3001 RMK A01 T01910156  RH  080%=      5-min Rain = 0
KAM3 181353Z 25006KT 19/16 A3001 RMK A01 T01900160  RH  083%=      5-min Rain = 0
KAM3 181354Z 25007KT 19/16 A3001 RMK A01 T01910157  RH  081%=      5-min Rain = 0
KAM3 181355Z 26008KT 19/16 A3001 RMK A01 T01920156  RH  080%=      5-min Rain = 0
KAM3 181356Z 26008KT 19/16 A3001 RMK A01 T01920155  RH  079%=      5-min Rain = 0
KAM3 181357Z 26007KT 19/16 A3001 RMK A01 T01920157  RH  080%=      5-min Rain = 0
KAM3 181358Z 26008KT 19/16 A3001 RMK A01 T01920158  RH  080%=      5-min Rain = 0
KAM3 181359Z 26007KT 19/16 A3001 RMK A01 T01930157  RH  079%=      5-min Rain = 0
KAM3 181400Z 25007KT 19/16 A3002 RMK A01 T01930158  RH  080%=      5-min Rain = 0
KAM3 181401Z 25006KT 19/16 A3002 RMK A01 T01940159  RH  080%=      5-min Rain = 0
KAM3 181402Z 25006KT 20/16 A3002 RMK A01 T01950162  RH  082%=      5-min Rain = 0
KAM3 181403Z 25010KT 20/16 A3002 RMK A01 T01960160  RH  079%=      5-min Rain = 0
KAM3 181404Z 25009KT 20/16 A3002 RMK A01 T01960156  RH  078%=      5-min Rain = 0
KAM3 181405Z 27008KT 20/16 A3002 RMK A01 T01970157  RH  078%=      5-min Rain = 0
KAM3 181406Z 26008KT 20/16 A3002 RMK A01 T01970157  RH  078%=      5-min Rain = 0
KAM3 181407Z 27007KT 20/16 A3002 RMK A01 T01960157  RH  078%=      5-min Rain = 0
KAM3 181408Z 27006KT 20/16 A3002 RMK A01 T01970163  RH  081%=      5-min Rain = 0
KAM3 181409Z 25009KT 20/16 A3002 RMK A01 T01980159  RH  078%=      5-min Rain = 0
KAM3 181410Z 26008KT 20/16 A3002 RMK A01 T01980155  RH  076%=      5-min Rain = 0
KAM3 181411Z 25008KT 20/15 A3002 RMK A01 T01980154  RH  076%=      5-min Rain = 0
KAM3 181412Z 26008KT 20/16 A3002 RMK A01 T01980157  RH  077%=      5-min Rain = 0
KAM3 181413Z 26008KT 20/15 A3002 RMK A01 T01990153  RH  075%=      5-min Rain = 0
KAM3 181414Z 26007KT 20/16 A3002 RMK A01 T01990156  RH  076%=      5-min Rain = 0
KAM3 181415Z 27007KT 20/16 A3002 RMK A01 T01990155  RH  076%=      5-min Rain = 0
KAM3 181416Z 26007KT 20/16 A3002 RMK A01 T01990157  RH  077%=      5-min Rain = 0
KAM3 181417Z 25008KT 20/16 A3002 RMK A01 T01990160  RH  078%=      5-min Rain = 0
KAM3 181418Z 25008KT 20/16 A3002 RMK A01 T02000155  RH  075%=      5-min Rain = 0
KAM3 181419Z 24009KT 20/16 A3002 RMK A01 T02010156  RH  075%=      5-min Rain = 0
KAM3 181420Z 25009KT 20/15 A3002 RMK A01 T02010154  RH  075%=      5-min Rain = 0
KAM3 181421Z 25008KT 20/15 A3002 RMK A01 T02010154  RH  075%=      5-min Rain = 0
KAM3 181422Z 26008KT 20/15 A3002 RMK A01 T02010152  RH  073%=      5-min Rain = 0
KAM3 181423Z 27008KT 20/15 A3002 RMK A01 T02000152  RH  074%=      5-min Rain = 0
KAM3 181424Z 27007KT 20/15 A3002 RMK A01 T02000151  RH  074%=      5-min Rain = 0
KAM3 181425Z 26008KT 20/16 A3002 RMK A01 T02000155  RH  076%=      5-min Rain = 0
KAM3 181426Z 27007KT 20/16 A3002 RMK A01 T02010158  RH  076%=      5-min Rain = 0
KAM3 181427Z 27007KT 20/16 A3002 RMK A01 T02020159  RH  076%=      5-min Rain = 0
KAM3 181428Z 26009KT 20/15 A3002 RMK A01 T02030153  RH  073%=      5-min Rain = 0
KAM3 181429Z 26008KT 20/15 A3002 RMK A01 T02020154  RH  073%=      5-min Rain = 0
KAM3 181430Z 27008KT 20/15 A3002 RMK A01 T02020154  RH  074%=      5-min Rain = 0
KAM3 181431Z 27007KT 20/16 A3002 RMK A01 T02030156  RH  074%=      5-min Rain = 0
KAM3 181432Z 27007KT 20/16 A3002 RMK A01 T02020156  RH  074%=      5-min Rain = 0
KAM3 181433Z 26006KT 20/16 A3002 RMK A01 T02030158  RH  075%=      5-min Rain = 0
KAM3 181434Z 26007KT 20/16 A3002 RMK A01 T02040158  RH  075%=      5-min Rain = 0
KAM3 181435Z 27005KT 21/16 A3002 RMK A01 T02050158  RH  074%=      5-min Rain = 0
KAM3 181436Z 28006KT 21/16 A3002 RMK A01 T02050157  RH  074%=      5-min Rain = 0
KAM3 181437Z 28005KT 21/16 A3002 RMK A01 T02050160  RH  075%=      5-min Rain = 0
KAM3 181438Z 28005KT 21/16 A3003 RMK A01 T02050157  RH  074%=      5-min Rain = 0
KAM3 181439Z 27006KT 21/16 A3003 RMK A01 T02050156  RH  073%=      5-min Rain = 0
KAM3 181440Z 28005KT 21/16 A3003 RMK A01 T02050156  RH  074%=      5-min Rain = 0
KAM3 181441Z 28007KT 21/16 A3003 RMK A01 T02050161  RH  076%=      5-min Rain = 0
KAM3 181442Z 26006KT 21/16 A3003 RMK A01 T02060156  RH  073%=      5-min Rain = 0
KAM3 181443Z 27006KT 21/16 A3003 RMK A01 T02060161  RH  075%=      5-min Rain = 0
KAM3 181444Z 29006KT 21/16 A3003 RMK A01 T02070163  RH  076%=      5-min Rain = 0
KAM3 181445Z 28006KT 21/16 A3003 RMK A01 T02080162  RH  075%=      5-min Rain = 0
KAM3 181446Z 27005KT 21/16 A3003 RMK A01 T02090158  RH  073%=      5-min Rain = 0
KAM3 181447Z 27004KT 21/16 A3003 RMK A01 T02080162  RH  075%=      5-min Rain = 0
KAM3 181448Z 28005KT 21/16 A3003 RMK A01 T02090163  RH  075%=      5-min Rain = 0
KAM3 181449Z 29004KT 21/16 A3003 RMK A01 T02090158  RH  072%=      5-min Rain = 0
KAM3 181450Z 27005KT 21/16 A3003 RMK A01 T02090164  RH  075%=      5-min Rain = 0
KAM3 181451Z 27007KT 21/16 A3003 RMK A01 T02100162  RH  074%=      5-min Rain = 0
KAM3 181452Z 29006KT 21/16 A3003 RMK A01 T02110159  RH  072%=      5-min Rain = 0
KAM3 181453Z 30006KT 21/16 A3003 RMK A01 T02120160  RH  072%=      5-min Rain = 0
KAM3 181454Z 28004KT 21/16 A3003 RMK A01 T02120163  RH  074%=      5-min Rain = 0
KAM3 181455Z 27003KT 21/17 A3003 RMK A01 T02130167  RH  075%=      5-min Rain = 0
KAM3 181456Z 26004KT 21/16 A3003 RMK A01 T02130157  RH  070%=      5-min Rain = 0
KAM3 181457Z 31003KT 21/16 A3003 RMK A01 T02130158  RH  071%=      5-min Rain = 0
KAM3 181458Z 32003KT 21/16 A3004 RMK A01 T02130160  RH  071%=      5-min Rain = 0
KAM3 181459Z 31003KT 21/16 A3004 RMK A01 T02140161  RH  072%=      5-min Rain = 0
KAM3 181500Z 31003KT 21/16 A3004 RMK A01 T02140160  RH  071%=      5-min Rain = 0
KAM3 181501Z 30005KT 22/16 A3004 RMK A01 T02150156  RH  069%=      5-min Rain = 0
KAM3 181502Z 31003KT 22/15 A3004 RMK A01 T02150152  RH  067%=      5-min Rain = 0
KAM3 181503Z 29002KT 22/16 A3004 RMK A01 T02150156  RH  069%=      5-min Rain = 0
KAM3 181504Z 28004KT 22/16 A3004 RMK A01 T02160156  RH  069%=      5-min Rain = 0
KAM3 181505Z 27004KT 22/15 A3004 RMK A01 T02160153  RH  067%=      5-min Rain = 0
KAM3 181506Z 26005KT 22/15 A3004 RMK A01 T02170154  RH  067%=      5-min Rain = 0
KAM3 181507Z 26004KT 22/15 A3004 RMK A01 T02180153  RH  067%=      5-min Rain = 0
KAM3 181508Z 28003KT 22/15 A3004 RMK A01 T02180152  RH  066%=      5-min Rain = 0
KAM3 181509Z 29003KT 22/15 A3004 RMK A01 T02180152  RH  066%=      5-min Rain = 0
KAM3 181510Z 29002KT 22/15 A3004 RMK A01 T02180148  RH  064%=      5-min Rain = 0
KAM3 181511Z 01000KT 22/15 A3004 RMK A01 T02180147  RH  064%=      5-min Rain = 0
KAM3 181512Z 08001KT 22/15 A3004 RMK A01 T02170147  RH  064%=      5-min Rain = 0
KAM3 181513Z 08002KT 22/15 A3005 RMK A01 T02180150  RH  065%=      5-min Rain = 0
KAM3 181514Z 11003KT 22/15 A3005 RMK A01 T02180149  RH  065%=      5-min Rain = 0
KAM3 181515Z 11003KT 22/15 A3005 RMK A01 T02190153  RH  066%=      5-min Rain = 0
KAM3 181516Z 11003KT 22/15 A3005 RMK A01 T02210154  RH  066%=      5-min Rain = 0
KAM3 181517Z 14003KT 22/16 A3005 RMK A01 T02220159  RH  068%=      5-min Rain = 0
KAM3 181518Z 18003KT 22/16 A3005 RMK A01 T02230157  RH  066%=      5-min Rain = 0
KAM3 181519Z 21004KT 22/16 A3005 RMK A01 T02240155  RH  065%=      5-min Rain = 0
KAM3 181520Z 22003KT 22/15 A3005 RMK A01 T02240150  RH  063%=      5-min Rain = 0
KAM3 181521Z 22002KT 22/15 A3005 RMK A01 T02230148  RH  062%=      5-min Rain = 0
KAM3 181522Z 22002KT 22/15 A3005 RMK A01 T02220151  RH  064%=      5-min Rain = 0
KAM3 181523Z 25001KT 22/15 A3005 RMK A01 T02220154  RH  065%=      5-min Rain = 0
KAM3 181524Z 26001KT 22/15 A3005 RMK A01 T02230148  RH  063%=      5-min Rain = 0
KAM3 181525Z 27002KT 22/15 A3004 RMK A01 T02220150  RH  064%=      5-min Rain = 0
KAM3 181526Z 26003KT 22/15 A3004 RMK A01 T02230153  RH  065%=      5-min Rain = 0
KAM3 181527Z 26003KT 22/15 A3004 RMK A01 T02230147  RH  062%=      5-min Rain = 0
KAM3 181528Z 25002KT 22/15 A3004 RMK A01 T02220148  RH  063%=      5-min Rain = 0
KAM3 181529Z 12001KT 22/15 A3004 RMK A01 T02220153  RH  065%=      5-min Rain = 0
KAM3 181530Z 10002KT 22/16 A3004 RMK A01 T02230159  RH  067%=      5-min Rain = 0
KAM3 181531Z 09003KT 23/17 A3004 RMK A01 T02250165  RH  069%=      5-min Rain = 0
KAM3 181532Z 15003KT 23/16 A3005 RMK A01 T02250159  RH  066%=      5-min Rain = 0
KAM3 181533Z 13002KT 23/16 A3005 RMK A01 T02250157  RH  065%=      5-min Rain = 0
KAM3 181534Z 16004KT 23/16 A3005 RMK A01 T02270164  RH  067%=      5-min Rain = 0
KAM3 181535Z 18004KT 23/16 A3004 RMK A01 T02280158  RH  065%=      5-min Rain = 0
KAM3 181536Z 18002KT 23/15 A3004 RMK A01 T02290154  RH  063%=      5-min Rain = 0
KAM3 181537Z 15002KT 23/15 A3004 RMK A01 T02280154  RH  063%=      5-min Rain = 0
KAM3 181538Z 14003KT 23/16 A3004 RMK A01 T02280156  RH  064%=      5-min Rain = 0
KAM3 181539Z 15003KT 23/15 A3004 RMK A01 T02280154  RH  063%=      5-min Rain = 0
KAM3 181540Z 14002KT 23/16 A3004 RMK A01 T02290158  RH  064%=      5-min Rain = 0
KAM3 181541Z 11002KT 23/16 A3004 RMK A01 T02300155  RH  063%=      5-min Rain = 0
KAM3 181542Z 05003KT 23/15 A3004 RMK A01 T02310154  RH  062%=      5-min Rain = 0
KAM3 181543Z 03003KT 23/15 A3004 RMK A01 T02310152  RH  061%=      5-min Rain = 0
KAM3 181544Z 03001KT 23/15 A3004 RMK A01 T02280150  RH  061%=      5-min Rain = 0
KAM3 181545Z 18000KT 23/15 A3004 RMK A01 T02270147  RH  061%=      5-min Rain = 0
KAM3 181546Z 16001KT 23/15 A3004 RMK A01 T02270151  RH  062%=      5-min Rain = 0
KAM3 181547Z 24001KT 23/15 A3004 RMK A01 T02280152  RH  062%=      5-min Rain = 0
KAM3 181548Z 23001KT 23/16 A3004 RMK A01 T02290155  RH  063%=      5-min Rain = 0
KAM3 181549Z 27002KT 23/15 A3004 RMK A01 T02290151  RH  061%=      5-min Rain = 0
KAM3 181550Z 31001KT 23/16 A3004 RMK A01 T02290158  RH  064%=      5-min Rain = 0
KAM3 181551Z 30003KT 23/16 A3004 RMK A01 T02280155  RH  063%=      5-min Rain = 0
KAM3 181552Z 30004KT 23/16 A3004 RMK A01 T02280161  RH  066%=      5-min Rain = 0
KAM3 181553Z 31003KT 23/16 A3004 RMK A01 T02280159  RH  065%=      5-min Rain = 0
KAM3 181554Z 30003KT 23/16 A3004 RMK A01 T02280156  RH  064%=      5-min Rain = 0
KAM3 181555Z 30003KT 23/16 A3004 RMK A01 T02280158  RH  065%=      5-min Rain = 0
KAM3 181556Z 30003KT 23/16 A3004 RMK A01 T02280162  RH  066%=      5-min Rain = 0
KAM3 181557Z 31002KT 23/16 A3004 RMK A01 T02280158  RH  064%=      5-min Rain = 0
KAM3 181558Z 34002KT 23/15 A3004 RMK A01 T02290152  RH  062%=      5-min Rain = 0
KAM3 181559Z 35002KT 23/15 A3004 RMK A01 T02280151  RH  062%=      5-min Rain = 0
KAM3 181600Z 36002KT 23/16 A3003 RMK A01 T02280158  RH  065%=      5-min Rain = 0
KAM3 181601Z 03002KT 23/16 A3003 RMK A01 T02290155  RH  063%=      5-min Rain = 0
KAM3 181602Z 09001KT 23/16 A3003 RMK A01 T02300158  RH  064%=      5-min Rain = 0
KAM3 181603Z 09001KT 23/15 A3003 RMK A01 T02310154  RH  062%=      5-min Rain = 0
KAM3 181604Z 08000KT 23/16 A3003 RMK A01 T02320161  RH  064%=      5-min Rain = 0
KAM3 181605Z 12001KT 23/16 A3003 RMK A01 T02340161  RH  064%=      5-min Rain = 0
KAM3 181606Z 16002KT 24/16 A3003 RMK A01 T02360162  RH  063%=      5-min Rain = 0
KAM3 181607Z 21002KT 24/16 A3003 RMK A01 T02370160  RH  062%=      5-min Rain = 0
KAM3 181608Z 21002KT 24/16 A3003 RMK A01 T02380162  RH  063%=      5-min Rain = 0
KAM3 181609Z 16002KT 24/16 A3003 RMK A01 T02380155  RH  060%=      5-min Rain = 0
KAM3 181610Z 15004KT 24/16 A3003 RMK A01 T02380159  RH  061%=      5-min Rain = 0
KAM3 181611Z 13004KT 24/16 A3003 RMK A01 T02380162  RH  062%=      5-min Rain = 0
KAM3 181612Z 14003KT 24/16 A3003 RMK A01 T02370162  RH  063%=      5-min Rain = 0
KAM3 181613Z 18004KT 24/16 A3003 RMK A01 T02370160  RH  062%=      5-min Rain = 0
KAM3 181614Z 19002KT 24/16 A3003 RMK A01 T02370162  RH  063%=      5-min Rain = 0
KAM3 181615Z 17001KT 24/16 A3003 RMK A01 T02380156  RH  060%=      5-min Rain = 0
KAM3 181616Z 20002KT 24/16 A3003 RMK A01 T02400156  RH  059%=      5-min Rain = 0
KAM3 181617Z 18002KT 24/15 A3003 RMK A01 T02400154  RH  059%=      5-min Rain = 0
KAM3 181618Z 17002KT 24/15 A3003 RMK A01 T02400154  RH  059%=      5-min Rain = 0
KAM3 181619Z 18002KT 24/16 A3003 RMK A01 T02410158  RH  060%=      5-min Rain = 0
KAM3 181620Z 20002G7KT 24/16 A3003 RMK A01 T02410156  RH  059%=      5-min Rain = 0
KAM3 181621Z 20006KT 24/16 A3003 RMK A01 T02410160  RH  060%=      5-min Rain = 0
KAM3 181622Z 22004KT 24/15 A3003 RMK A01 T02400154  RH  058%=      5-min Rain = 0
KAM3 181623Z 22007KT 24/16 A3003 RMK A01 T02390162  RH  062%=      5-min Rain = 0
KAM3 181624Z 20006KT 24/16 A3003 RMK A01 T02400160  RH  061%=      5-min Rain = 0
KAM3 181625Z 18005KT 24/16 A3003 RMK A01 T02390156  RH  059%=      5-min Rain = 0
KAM3 181626Z 18004KT 24/15 A3003 RMK A01 T02390152  RH  058%=      5-min Rain = 0
KAM3 181627Z 20003KT 24/15 A3003 RMK A01 T02380154  RH  059%=      5-min Rain = 0
KAM3 181628Z 15002KT 24/16 A3003 RMK A01 T02380155  RH  060%=      5-min Rain = 0
KAM3 181629Z 15002KT 24/15 A3003 RMK A01 T02380153  RH  059%=      5-min Rain = 0
KAM3 181630Z 16003KT 24/16 A3003 RMK A01 T02390160  RH  061%=      5-min Rain = 0
KAM3 181631Z 18001KT 24/15 A3003 RMK A01 T02400153  RH  058%=      5-min Rain = 0
KAM3 181632Z 21005KT 24/16 A3003 RMK A01 T02410162  RH  061%=      5-min Rain = 0
KAM3 181633Z 21004KT 24/16 A3003 RMK A01 T02430158  RH  059%=      5-min Rain = 0
KAM3 181634Z 19003KT 24/16 A3003 RMK A01 T02420157  RH  059%=      5-min Rain = 0
KAM3 181635Z 23004KT 24/16 A3003 RMK A01 T02420163  RH  061%=      5-min Rain = 0
KAM3 181636Z 22004KT 24/16 A3003 RMK A01 T02420161  RH  060%=      5-min Rain = 0
KAM3 181637Z 21005KT 24/17 A3003 RMK A01 T02430167  RH  062%=      5-min Rain = 0
KAM3 181638Z 20003KT 24/16 A3003 RMK A01 T02440162  RH  060%=      5-min Rain = 0
KAM3 181639Z 21002KT 24/16 A3002 RMK A01 T02440159  RH  059%=      5-min Rain = 0
KAM3 181640Z 24005KT 24/16 A3002 RMK A01 T02440164  RH  061%=      5-min Rain = 0
KAM3 181641Z 25005KT 25/17 A3002 RMK A01 T02450165  RH  061%=      5-min Rain = 0
KAM3 181642Z 24005KT 25/16 A3002 RMK A01 T02460158  RH  058%=      5-min Rain = 0
KAM3 181643Z 23006KT 25/16 A3002 RMK A01 T02450162  RH  060%=      5-min Rain = 0
KAM3 181644Z 22003KT 25/16 A3002 RMK A01 T02450158  RH  058%=      5-min Rain = 0
KAM3 181645Z 20006KT 25/16 A3002 RMK A01 T02460164  RH  060%=      5-min Rain = 0
KAM3 181646Z 19006KT 25/17 A3002 RMK A01 T02470166  RH  061%=      5-min Rain = 0
KAM3 181647Z 20004KT 25/16 A3002 RMK A01 T02480161  RH  059%=      5-min Rain = 0
KAM3 181648Z 23003KT 25/16 A3002 RMK A01 T02480159  RH  058%=      5-min Rain = 0
KAM3 181649Z 27003KT 25/16 A3002 RMK A01 T02470157  RH  057%=      5-min Rain = 0
KAM3 181650Z 26004KT 25/17 A3002 RMK A01 T02470166  RH  061%=      5-min Rain = 0
KAM3 181651Z 23004KT 25/17 A3002 RMK A01 T02480166  RH  060%=      5-min Rain = 0
KAM3 181652Z 23003KT 25/17 A3002 RMK A01 T02490166  RH  060%=      5-min Rain = 0
KAM3 181653Z 24006KT 25/17 A3002 RMK A01 T02500171  RH  061%=      5-min Rain = 0
KAM3 181654Z 25006KT 25/16 A3002 RMK A01 T02510162  RH  058%=      5-min Rain = 0
KAM3 181655Z 25007KT 25/16 A3002 RMK A01 T02500161  RH  058%=      5-min Rain = 0
KAM3 181656Z 25007KT 25/16 A3002 RMK A01 T02480163  RH  059%=      5-min Rain = 0
KAM3 181657Z 25006KT 25/16 A3002 RMK A01 T02480162  RH  059%=      5-min Rain = 0
KAM3 181658Z 25006KT 25/17 A3002 RMK A01 T02470165  RH  060%=      5-min Rain = 0
KAM3 181659Z 25007KT 25/17 A3002 RMK A01 T02480165  RH  060%=      5-min Rain = 0
KAM3 181700Z 25004KT 25/16 A3002 RMK A01 T02480161  RH  058%=      5-min Rain = 0
KAM3 181701Z 24001KT 25/17 A3002 RMK A01 T02490165  RH  060%=      5-min Rain = 0
KAM3 181702Z 23002KT 25/16 A3002 RMK A01 T02490163  RH  059%=      5-min Rain = 0
KAM3 181703Z 25004KT 25/17 A3002 RMK A01 T02510166  RH  059%=      5-min Rain = 0
KAM3 181704Z 25005KT 25/16 A3002 RMK A01 T02520163  RH  058%=      5-min Rain = 0
KAM3 181705Z 24004KT 25/16 A3002 RMK A01 T02520163  RH  058%=      5-min Rain = 0
KAM3 181706Z 22005KT 25/17 A3002 RMK A01 T02510167  RH  059%=      5-min Rain = 0
KAM3 181707Z 22005KT 25/17 A3002 RMK A01 T02520172  RH  061%=      5-min Rain = 0
KAM3 181708Z 24004KT 25/16 A3002 RMK A01 T02540163  RH  057%=      5-min Rain = 0
KAM3 181709Z 23006KT 25/16 A3002 RMK A01 T02540163  RH  057%=      5-min Rain = 0
KAM3 181710Z 22004KT 25/16 A3002 RMK A01 T02530163  RH  057%=      5-min Rain = 0
KAM3 181711Z 23005KT 25/17 A3002 RMK A01 T02540166  RH  058%=      5-min Rain = 0
KAM3 181712Z 22007KT 26/17 A3002 RMK A01 T02550174  RH  061%=      5-min Rain = 0
KAM3 181713Z 23006KT 26/17 A3002 RMK A01 T02570172  RH  059%=      5-min Rain = 0
KAM3 181714Z 24003KT 26/16 A3001 RMK A01 T02570162  RH  056%=      5-min Rain = 0
KAM3 181715Z 22004KT 26/17 A3001 RMK A01 T02570172  RH  059%=      5-min Rain = 0
KAM3 181716Z 21006KT 26/17 A3001 RMK A01 T02580174  RH  060%=      5-min Rain = 0
KAM3 181717Z 21006KT 26/17 A3001 RMK A01 T02590172  RH  059%=      5-min Rain = 0
KAM3 181718Z 19006KT 26/17 A3001 RMK A01 T02590167  RH  057%=      5-min Rain = 0
KAM3 181719Z 20004KT 26/17 A3001 RMK A01 T02600168  RH  057%=      5-min Rain = 0
KAM3 181720Z 20004KT 26/17 A3001 RMK A01 T02610173  RH  059%=      5-min Rain = 0
KAM3 181721Z 23005KT 26/18 A3001 RMK A01 T02630175  RH  059%=      5-min Rain = 0
KAM3 181722Z 24006KT 26/17 A3001 RMK A01 T02640170  RH  056%=      5-min Rain = 0
KAM3 181723Z 24004KT 26/17 A3001 RMK A01 T02640171  RH  057%=      5-min Rain = 0
KAM3 181724Z 23005KT 26/17 A3001 RMK A01 T02630171  RH  057%=      5-min Rain = 0
KAM3 181725Z 25005KT 26/18 A3001 RMK A01 T02630175  RH  058%=      5-min Rain = 0
KAM3 181726Z 24007KT 26/18 A3001 RMK A01 T02640175  RH  058%=      5-min Rain = 0
KAM3 181727Z 26007KT 27/18 A3001 RMK A01 T02660176  RH  058%=      5-min Rain = 0
KAM3 181728Z 26006KT 27/17 A3001 RMK A01 T02670170  RH  055%=      5-min Rain = 0
KAM3 181729Z 26007KT 27/18 A3001 RMK A01 T02670175  RH  057%=      5-min Rain = 0
KAM3 181730Z 26009KT 27/18 A3001 RMK A01 T02660175  RH  057%=      5-min Rain = 0
KAM3 181731Z 25011KT 27/18 A3001 RMK A01 T02660175  RH  058%=      5-min Rain = 0
KAM3 181732Z 26010KT 27/17 A3001 RMK A01 T02650170  RH  056%=      5-min Rain = 0
KAM3 181733Z 26008KT 27/17 A3001 RMK A01 T02650170  RH  056%=      5-min Rain = 0
KAM3 181734Z 24008KT 27/17 A3001 RMK A01 T02650171  RH  056%=      5-min Rain = 0
KAM3 181735Z 23008KT 27/17 A3001 RMK A01 T02650172  RH  056%=      5-min Rain = 0
KAM3 181736Z 23009KT 27/17 A3001 RMK A01 T02660168  RH  055%=      5-min Rain = 0
KAM3 181737Z 23010KT 27/18 A3001 RMK A01 T02660176  RH  058%=      5-min Rain = 0
KAM3 181738Z 26011KT 27/17 A3001 RMK A01 T02660167  RH  055%=      5-min Rain = 0
KAM3 181739Z 26009KT 27/17 A3001 RMK A01 T02650168  RH  055%=      5-min Rain = 0
KAM3 181740Z 25007KT 27/17 A3001 RMK A01 T02650171  RH  056%=      5-min Rain = 0
KAM3 181741Z 21008KT 27/17 A3001 RMK A01 T02650174  RH  057%=      5-min Rain = 0
KAM3 181742Z 21011KT 27/17 A3001 RMK A01 T02670171  RH  056%=      5-min Rain = 0
KAM3 181743Z 21012KT 27/17 A3001 RMK A01 T02670168  RH  055%=      5-min Rain = 0
KAM3 181744Z 22009KT 27/16 A3001 RMK A01 T02660164  RH  054%=      5-min Rain = 0
KAM3 181745Z 24008KT 27/17 A3001 RMK A01 T02650174  RH  057%=      5-min Rain = 0
KAM3 181746Z 23011KT 27/17 A3001 RMK A01 T02660174  RH  057%=      5-min Rain = 0
KAM3 181747Z 25010KT 27/17 A3001 RMK A01 T02670171  RH  056%=      5-min Rain = 0
KAM3 181748Z 25009KT 27/18 A3001 RMK A01 T02670175  RH  057%=      5-min Rain = 0
KAM3 181749Z 24010KT 27/18 A3001 RMK A01 T02680179  RH  058%=      5-min Rain = 0
KAM3 181750Z 24008KT 27/17 A3001 RMK A01 T02690174  RH  056%=      5-min Rain = 0
KAM3 181751Z 24005KT 27/18 A3001 RMK A01 T02690176  RH  057%=      5-min Rain = 0
KAM3 181752Z 23006KT 27/17 A3001 RMK A01 T02690173  RH  055%=      5-min Rain = 0
KAM3 181753Z 24006KT 27/16 A3001 RMK A01 T02690163  RH  052%=      5-min Rain = 0
KAM3 181754Z 23008KT 27/17 A3001 RMK A01 T02670167  RH  054%=      5-min Rain = 0
KAM3 181755Z 25010G15KT 27/17 A3001 RMK A01 T02670172  RH  056%=      5-min Rain = 0
KAM3 181756Z 24011KT 27/17 A30 RMK A01 T02680168  RH  054%=      5-min Rain = 0
KAM3 181757Z 22009KT 27/17 A3001 RMK A01 T02680173  RH  056%=      5-min Rain = 0
KAM3 181758Z 23011KT 27/17 A3001 RMK A01 T02680171  RH  055%=      5-min Rain = 0
KAM3 181759Z 23012KT 27/17 A3001 RMK A01 T02680169  RH  055%=      5-min Rain = 0
KAM3 181800Z 25012KT 27/17 A3001 RMK A01 T02680167  RH  054%=      5-min Rain = 0
KAM3 181801Z 24010KT 27/18 A3001 RMK A01 T02670175  RH  057%=      5-min Rain = 0
KAM3 181802Z 24010KT 27/17 A3001 RMK A01 T02680172  RH  056%=      5-min Rain = 0
KAM3 181803Z 23009KT 27/17 A3001 RMK A01 T02690174  RH  056%=      5-min Rain = 0
KAM3 181804Z 23010KT 27/17 A30 RMK A01 T02700168  RH  054%=      5-min Rain = 0
KAM3 181805Z 24008KT 27/17 A30 RMK A01 T02680165  RH  053%=      5-min Rain = 0
KAM3 181806Z 23007KT 27/17 A30 RMK A01 T02670166  RH  054%=      5-min Rain = 0
KAM3 181807Z 26009KT 27/17 A30 RMK A01 T02670171  RH  056%=      5-min Rain = 0
KAM3 181808Z 26009KT 27/18 A30 RMK A01 T02680177  RH  057%=      5-min Rain = 0
KAM3 181809Z 26009KT 27/18 A30 RMK A01 T02700177  RH  057%=      5-min Rain = 0
KAM3 181810Z 25008KT 27/18 A30 RMK A01 T02720183  RH  058%=      5-min Rain = 0
KAM3 181811Z 24010KT 27/18 A30 RMK A01 T02730175  RH  055%=      5-min Rain = 0
KAM3 181812Z 24007KT 27/17 A30 RMK A01 T02720170  RH  054%=      5-min Rain = 0
KAM3 181813Z 22010KT 27/18 A30 RMK A01 T02710176  RH  056%=      5-min Rain = 0
KAM3 181814Z 22011KT 27/18 A30 RMK A01 T02710175  RH  056%=      5-min Rain = 0
KAM3 181815Z 23010KT 27/17 A30 RMK A01 T02710172  RH  055%=      5-min Rain = 0
KAM3 181816Z 22012KT 27/17 A30 RMK A01 T02710174  RH  055%=      5-min Rain = 0
KAM3 181817Z 22009KT 27/17 A30 RMK A01 T02710172  RH  055%=      5-min Rain = 0
KAM3 181818Z 21008KT 27/17 A30 RMK A01 T02700174  RH  056%=      5-min Rain = 0
KAM3 181819Z 23009KT 27/18 A30 RMK A01 T02710177  RH  057%=      5-min Rain = 0
KAM3 181820Z 21008KT 27/18 A30 RMK A01 T02720178  RH  056%=      5-min Rain = 0
KAM3 181821Z 23005KT 27/18 A30 RMK A01 T02730184  RH  058%=      5-min Rain = 0
KAM3 181822Z 23008KT 28/18 A30 RMK A01 T02750180  RH  056%=      5-min Rain = 0
KAM3 181823Z 24006KT 28/17 A30 RMK A01 T02750173  RH  054%=      5-min Rain = 0
KAM3 181824Z 22010KT 27/18 A30 RMK A01 T02740183  RH  057%=      5-min Rain = 0
KAM3 181825Z 21011KT 28/18 A30 RMK A01 T02750178  RH  055%=      5-min Rain = 0
KAM3 181826Z 21013KT 27/18 A30 RMK A01 T02740175  RH  055%=      5-min Rain = 0
KAM3 181827Z 20011KT 27/17 A30 RMK A01 T02730172  RH  054%=      5-min Rain = 0
KAM3 181828Z 21008KT 27/18 A2999 RMK A01 T02720179  RH  057%=      5-min Rain = 0
KAM3 181829Z 21008KT 27/18 A2999 RMK A01 T02730175  RH  055%=      5-min Rain = 0
KAM3 181830Z 22008KT 27/18 A2999 RMK A01 T02740177  RH  056%=      5-min Rain = 0
KAM3 181831Z 24006KT 28/18 A2999 RMK A01 T02750183  RH  057%=      5-min Rain = 0
KAM3 181832Z 25009KT 28/18 A2999 RMK A01 T02760176  RH  054%=      5-min Rain = 0
KAM3 181833Z 23010KT 28/18 A2999 RMK A01 T02760175  RH  054%=      5-min Rain = 0
KAM3 181834Z 23010KT 28/18 A2999 RMK A01 T02750175  RH  055%=      5-min Rain = 0
KAM3 181835Z 23011KT 28/18 A2999 RMK A01 T02750180  RH  056%=      5-min Rain = 0
KAM3 181836Z 22008KT 28/17 A2999 RMK A01 T02750174  RH  054%=      5-min Rain = 0
KAM3 181837Z 20008KT 28/18 A2999 RMK A01 T02750178  RH  055%=      5-min Rain = 0
KAM3 181838Z 21007KT 28/17 A2999 RMK A01 T02770173  RH  053%=      5-min Rain = 0
KAM3 181839Z 22007KT 28/17 A2999 RMK A01 T02760171  RH  053%=      5-min Rain = 0
KAM3 181840Z 24010KT 28/18 A2999 RMK A01 T02760178  RH  055%=      5-min Rain = 0
KAM3 181841Z 24012KT 28/17 A2999 RMK A01 T02760174  RH  054%=      5-min Rain = 0
KAM3 181842Z 23011KT 28/18 A2999 RMK A01 T02760179  RH  055%=      5-min Rain = 0
KAM3 181843Z 24010KT 28/17 A2999 RMK A01 T02760173  RH  053%=      5-min Rain = 0
KAM3 181844Z 25006KT 28/17 A2999 RMK A01 T02760172  RH  053%=      5-min Rain = 0
KAM3 181845Z 26008KT 28/18 A2999 RMK A01 T02760180  RH  056%=      5-min Rain = 0
KAM3 181846Z 26007KT 28/17 A2999 RMK A01 T02760171  RH  053%=      5-min Rain = 0
KAM3 181847Z 25009KT 28/18 A2999 RMK A01 T02760177  RH  055%=      5-min Rain = 0
KAM3 181848Z 25006KT 28/17 A2999 RMK A01 T02760174  RH  054%=      5-min Rain = 0
KAM3 181849Z 25005KT 28/17 A2999 RMK A01 T02760174  RH  054%=      5-min Rain = 0
KAM3 181850Z 25003KT 28/17 A2999 RMK A01 T02770166  RH  051%=      5-min Rain = 0
KAM3 181851Z 24005KT 28/18 A2999 RMK A01 T02770177  RH  055%=      5-min Rain = 0
KAM3 181852Z 25007KT 28/18 A2999 RMK A01 T02780176  RH  054%=      5-min Rain = 0
KAM3 181853Z 26007KT 28/18 A2998 RMK A01 T02780176  RH  054%=      5-min Rain = 0
KAM3 181854Z 23006KT 28/18 A2999 RMK A01 T02780183  RH  056%=      5-min Rain = 0
KAM3 181855Z 24002KT 28/18 A2998 RMK A01 T02790178  RH  054%=      5-min Rain = 0
KAM3 181856Z 24004KT 28/18 A2998 RMK A01 T02800176  RH  053%=      5-min Rain = 0
KAM3 181857Z 23005G10KT 28/18 A2998 RMK A01 T02810175  RH  053%=      5-min Rain = 0
KAM3 181858Z 23010KT 28/19 A2998 RMK A01 T02810185  RH  056%=      5-min Rain = 0
KAM3 181859Z 22009KT 28/18 A2998 RMK A01 T02830180  RH  054%=      5-min Rain = 0
KAM3 181900Z 23005KT 28/19 A2998 RMK A01 T02830187  RH  056%=      5-min Rain = 0
KAM3 181901Z 22005KT 29/19 A2998 RMK A01 T02850190  RH  056%=      5-min Rain = 0
KAM3 181902Z 23006KT 29/19 A2998 RMK A01 T02870190  RH  056%=      5-min Rain = 0
KAM3 181903Z 24009KT 29/18 A2998 RMK A01 T02880183  RH  053%=      5-min Rain = 0
KAM3 181904Z 24010KT 29/19 A2998 RMK A01 T02860186  RH  055%=      5-min Rain = 0
KAM3 181905Z 24010KT 29/18 A2998 RMK A01 T02860180  RH  053%=      5-min Rain = 0
KAM3 181906Z 24009KT 29/18 A2998 RMK A01 T02850178  RH  052%=      5-min Rain = 0
KAM3 181907Z 24008KT 28/18 A2998 RMK A01 T02830181  RH  054%=      5-min Rain = 0
KAM3 181908Z 24007KT 28/17 A2998 RMK A01 T02830174  RH  052%=      5-min Rain = 0
KAM3 181909Z 24007KT 28/18 A2998 RMK A01 T02830176  RH  052%=      5-min Rain = 0
KAM3 181910Z 22007KT 28/19 A2998 RMK A01 T02830185  RH  055%=      5-min Rain = 0
KAM3 181911Z 22010KT 28/18 A2998 RMK A01 T02830179  RH  053%=      5-min Rain = 0
KAM3 181912Z 24007KT 28/17 A2998 RMK A01 T02830168  RH  050%=      5-min Rain = 0
KAM3 181913Z 24004KT 28/16 A2998 RMK A01 T02810163  RH  049%=      5-min Rain = 0
KAM3 181914Z 23003KT 28/17 A2998 RMK A01 T02800168  RH  051%=      5-min Rain = 0
KAM3 181915Z 21003KT 28/18 A2998 RMK A01 T02810175  RH  053%=      5-min Rain = 0
KAM3 181916Z 24007KT 28/18 A2998 RMK A01 T02830177  RH  053%=      5-min Rain = 0
KAM3 181917Z 21007KT 28/17 A2998 RMK A01 T02840174  RH  051%=      5-min Rain = 0
KAM3 181918Z 22006KT 28/17 A2997 RMK A01 T02830173  RH  051%=      5-min Rain = 0
KAM3 181919Z 22007KT 28/17 A2997 RMK A01 T02820174  RH  052%=      5-min Rain = 0
KAM3 181920Z 21006KT 28/18 A2997 RMK A01 T02810175  RH  053%=      5-min Rain = 0
KAM3 181921Z 22007KT 28/18 A2997 RMK A01 T02810176  RH  053%=      5-min Rain = 0
KAM3 181922Z 20005KT 28/18 A2997 RMK A01 T02820176  RH  053%=      5-min Rain = 0
KAM3 181923Z 20003KT 28/17 A2997 RMK A01 T02830174  RH  051%=      5-min Rain = 0
KAM3 181924Z 18002KT 28/17 A2997 RMK A01 T02840168  RH  049%=      5-min Rain = 0
KAM3 181925Z 21003KT 29/17 A2997 RMK A01 T02850170  RH  050%=      5-min Rain = 0
KAM3 181926Z 24006KT 29/18 A2997 RMK A01 T02860175  RH  051%=      5-min Rain = 0
KAM3 181927Z 23006KT 29/18 A2997 RMK A01 T02870179  RH  052%=      5-min Rain = 0
KAM3 181928Z 23009KT 29/19 A2997 RMK A01 T02870186  RH  054%=      5-min Rain = 0
KAM3 181929Z 22007KT 29/18 A2997 RMK A01 T02860176  RH  051%=      5-min Rain = 0
KAM3 181930Z 22005KT 29/18 A2997 RMK A01 T02860176  RH  051%=      5-min Rain = 0
KAM3 181931Z 22007KT 29/18 A2997 RMK A01 T02870182  RH  053%=      5-min Rain = 0
KAM3 181932Z 22005KT 29/17 A2997 RMK A01 T02870174  RH  050%=      5-min Rain = 0
KAM3 181933Z 21007KT 29/17 A2997 RMK A01 T02870173  RH  050%=      5-min Rain = 0
KAM3 181934Z 23006KT 29/17 A2996 RMK A01 T02870170  RH  049%=      5-min Rain = 0
KAM3 181935Z 21007KT 29/17 A2996 RMK A01 T02860174  RH  051%=      5-min Rain = 0
KAM3 181936Z 21008KT 29/18 A2996 RMK A01 T02860178  RH  052%=      5-min Rain = 0
KAM3 181937Z 21005KT 29/18 A2996 RMK A01 T02850180  RH  053%=      5-min Rain = 0
KAM3 181938Z 19005KT 29/18 A2996 RMK A01 T02850183  RH  054%=      5-min Rain = 0
KAM3 181939Z 19005KT 29/18 A2996 RMK A01 T02850178  RH  052%=      5-min Rain = 0
KAM3 181940Z 19004KT 29/17 A2996 RMK A01 T02850170  RH  050%=      5-min Rain = 0
KAM3 181941Z 19002KT 29/17 A2996 RMK A01 T02860170  RH  049%=      5-min Rain = 0
KAM3 181942Z 19002KT 29/17 A2996 RMK A01 T02880169  RH  049%=      5-min Rain = 0
KAM3 181943Z 21001KT 29/17 A2996 RMK A01 T02890165  RH  047%=      5-min Rain = 0
KAM3 181944Z 18001KT 29/18 A2996 RMK A01 T02910177  RH  050%=      5-min Rain = 0
KAM3 181945Z 23002KT 29/18 A2996 RMK A01 T02940180  RH  050%=      5-min Rain = 0
KAM3 181946Z 22002KT 30/18 A2996 RMK A01 T02960181  RH  050%=      5-min Rain = 0
KAM3 181947Z 25005KT 30/19 A2996 RMK A01 T02970187  RH  051%=      5-min Rain = 0
KAM3 181948Z 23010KT 30/19 A2996 RMK A01 T02990189  RH  052%=      5-min Rain = 0
KAM3 181949Z 24008KT 30/18 A2996 RMK A01 T02990179  RH  048%=      5-min Rain = 0
KAM3 181950Z 23006KT 30/18 A2996 RMK A01 T02990181  RH  049%=      5-min Rain = 0
KAM3 181951Z 24008KT 30/18 A2996 RMK A01 T02990181  RH  049%=      5-min Rain = 0
KAM3 181952Z 24009KT 30/17 A2996 RMK A01 T02990173  RH  047%=      5-min Rain = 0
KAM3 181953Z 23009KT 30/17 A2996 RMK A01 T02970171  RH  047%=      5-min Rain = 0
KAM3 181954Z 23008KT 29/17 A2995 RMK A01 T02940170  RH  047%=      5-min Rain = 0
KAM3 181955Z 24008KT 29/17 A2995 RMK A01 T02920171  RH  048%=      5-min Rain = 0
KAM3 181956Z 24007KT 29/18 A2995 RMK A01 T02920175  RH  049%=      5-min Rain = 0
KAM3 181957Z 24008KT 29/18 A2995 RMK A01 T02930180  RH  051%=      5-min Rain = 0
KAM3 181958Z 23008KT 30/19 A2995 RMK A01 T02960186  RH  052%=      5-min Rain = 0
KAM3 181959Z 22004KT 30/19 A2995 RMK A01 T02980189  RH  052%=      5-min Rain = 0
KAM3 182000Z 24005KT 30/19 A2995 RMK A01 T03010191  RH  052%=      5-min Rain = 0
KAM3 182001Z 24006KT 30/18 A2995 RMK A01 T03020175  RH  047%=      5-min Rain = 0
KAM3 182002Z 23006KT 30/18 A2995 RMK A01 T03010175  RH  047%=      5-min Rain = 0
KAM3 182003Z 22006KT 30/18 A2995 RMK A01 T03000181  RH  049%=      5-min Rain = 0
KAM3 182004Z 20010KT 30/18 A2995 RMK A01 T03000182  RH  049%=      5-min Rain = 0
KAM3 182005Z 20011KT 30/18 A2995 RMK A01 T03000181  RH  049%=      5-min Rain = 0
KAM3 182006Z 21008G13KT 30/18 A2995 RMK A01 T02990182  RH  050%=      5-min Rain = 0
KAM3 182007Z 20008KT 30/18 A2995 RMK A01 T02980181  RH  049%=      5-min Rain = 0
KAM3 182008Z 19007KT 30/18 A2995 RMK A01 T02980184  RH  050%=      5-min Rain = 0
KAM3 182009Z 23009KT 30/18 A2995 RMK A01 T02990177  RH  048%=      5-min Rain = 0
KAM3 182010Z 23010KT 30/18 A2995 RMK A01 T02990176  RH  048%=      5-min Rain = 0
KAM3 182011Z 23008KT 30/18 A2995 RMK A01 T02990177  RH  048%=      5-min Rain = 0
KAM3 182012Z 24006KT 30/18 A2994 RMK A01 T02990182  RH  050%=      5-min Rain = 0
KAM3 182013Z 23008KT 30/17 A2994 RMK A01 T02990174  RH  047%=      5-min Rain = 0
KAM3 182014Z 24005KT 30/17 A2994 RMK A01 T02990171  RH  046%=      5-min Rain = 0
KAM3 182015Z 23005KT 30/17 A2994 RMK A01 T02990170  RH  046%=      5-min Rain = 0
KAM3 182016Z 21008KT 30/18 A2994 RMK A01 T02970176  RH  048%=      5-min Rain = 0
KAM3 182017Z 21011KT 30/17 A2994 RMK A01 T02950174  RH  048%=      5-min Rain = 0
KAM3 182018Z 20009KT 29/17 A2994 RMK A01 T02920170  RH  048%=      5-min Rain = 0
KAM3 182019Z 20007KT 29/17 A2994 RMK A01 T02900174  RH  050%=      5-min Rain = 0
KAM3 182020Z 19007KT 29/18 A2994 RMK A01 T02890175  RH  050%=      5-min Rain = 0
KAM3 182021Z 19007G13KT 29/18 A2994 RMK A01 T02910176  RH  050%=      5-min Rain = 0
KAM3 182022Z 20011KT 30/17 A2994 RMK A01 T02950174  RH  048%=      5-min Rain = 0
KAM3 182023Z 18007KT 30/18 A2994 RMK A01 T02970177  RH  048%=      5-min Rain = 0
KAM3 182024Z 17009KT 30/18 A2994 RMK A01 T03000182  RH  049%=      5-min Rain = 0
KAM3 182025Z 20011KT 30/18 A2994 RMK A01 T03020182  RH  049%=      5-min Rain = 0
KAM3 182026Z 18012KT 30/18 A2994 RMK A01 T03020175  RH  047%=      5-min Rain = 0
KAM3 182027Z 19012KT 30/17 A2994 RMK A01 T03020172  RH  046%=      5-min Rain = 0
KAM3 182028Z 20011KT 30/17 A2994 RMK A01 T03010174  RH  047%=      5-min Rain = 0
KAM3 182029Z 20009KT 30/17 A2994 RMK A01 T03000174  RH  047%=      5-min Rain = 0
KAM3 182030Z 21009KT 30/18 A2994 RMK A01 T03000175  RH  047%=      5-min Rain = 0
KAM3 182031Z 21008KT 30/17 A2993 RMK A01 T03000169  RH  045%=      5-min Rain = 0
KAM3 182032Z 20006KT 30/18 A2993 RMK A01 T03000178  RH  048%=      5-min Rain = 0
KAM3 182033Z 21005KT 30/17 A2993 RMK A01 T03000174  RH  047%=      5-min Rain = 0
KAM3 182034Z 21004KT 30/18 A2993 RMK A01 T03010177  RH  047%=      5-min Rain = 0
KAM3 182035Z 19006KT 30/18 A2993 RMK A01 T03020181  RH  048%=      5-min Rain = 0
KAM3 182036Z 19006KT 30/19 A2993 RMK A01 T03040193  RH  051%=      5-min Rain = 0
KAM3 182037Z 18006KT 31/18 A2993 RMK A01 T03060181  RH  047%=      5-min Rain = 0
KAM3 182038Z 22007KT 31/18 A2993 RMK A01 T03060178  RH  047%=      5-min Rain = 0
KAM3 182039Z 20013KT 30/18 A2993 RMK A01 T03020178  RH  048%=      5-min Rain = 0
KAM3 182040Z 20013KT 30/17 A2993 RMK A01 T02970171  RH  047%=      5-min Rain = 0
KAM3 182041Z 19009KT 30/17 A2993 RMK A01 T02950169  RH  047%=      5-min Rain = 0
KAM3 182042Z 18007KT 30/17 A2993 RMK A01 T02950169  RH  046%=      5-min Rain = 0
KAM3 182043Z 19007KT 30/17 A2993 RMK A01 T02960171  RH  047%=      5-min Rain = 0
KAM3 182044Z 20007KT 30/17 A2993 RMK A01 T02950173  RH  048%=      5-min Rain = 0
KAM3 182045Z 18007KT 30/18 A2993 RMK A01 T02960178  RH  049%=      5-min Rain = 0
KAM3 182046Z 18009KT 30/18 A2993 RMK A01 T02990181  RH  049%=      5-min Rain = 0
KAM3 182047Z 19011KT 30/18 A2993 RMK A01 T03010179  RH  048%=      5-min Rain = 0
KAM3 182048Z 19008KT 30/17 A2993 RMK A01 T03030171  RH  045%=      5-min Rain = 0
KAM3 182049Z 19007KT 30/18 A2993 RMK A01 T03010178  RH  047%=      5-min Rain = 0
KAM3 182050Z 19009KT 30/17 A2992 RMK A01 T03010174  RH  047%=      5-min Rain = 0
KAM3 182051Z 19010KT 30/18 A2992 RMK A01 T02990176  RH  048%=      5-min Rain = 0
KAM3 182052Z 19012KT 30/18 A2992 RMK A01 T02990176  RH  048%=      5-min Rain = 0
KAM3 182053Z 19010KT 30/18 A2992 RMK A01 T03000178  RH  048%=      5-min Rain = 0
KAM3 182054Z 22010KT 30/18 A2992 RMK A01 T03010179  RH  048%=      5-min Rain = 0
KAM3 182055Z 21009KT 30/18 A2992 RMK A01 T03020175  RH  046%=      5-min Rain = 0
KAM3 182056Z 20009KT 30/17 A2992 RMK A01 T03020174  RH  046%=      5-min Rain = 0
KAM3 182057Z 20008KT 30/18 A2992 RMK A01 T03030182  RH  048%=      5-min Rain = 0
KAM3 182058Z 20011KT 31/19 A2992 RMK A01 T03060185  RH  049%=      5-min Rain = 0
KAM3 182059Z 20010KT 31/17 A2992 RMK A01 T03070172  RH  045%=      5-min Rain = 0
KAM3 182100Z 19012KT 31/17 A2992 RMK A01 T03060170  RH  044%=      5-min Rain = 0
KAM3 182101Z 19013KT 31/17 A2992 RMK A01 T03060172  RH  045%=      5-min Rain = 0
KAM3 182102Z 18010KT 30/17 A2992 RMK A01 T03040166  RH  043%=      5-min Rain = 0
KAM3 182103Z 18008KT 30/17 A2992 RMK A01 T03020172  RH  046%=      5-min Rain = 0
KAM3 182104Z 18007KT 30/17 A2992 RMK A01 T03020171  RH  045%=      5-min Rain = 0
KAM3 182105Z 18007KT 30/18 A2992 RMK A01 T03030176  RH  047%=      5-min Rain = 0
KAM3 182106Z 19008KT 30/18 A2992 RMK A01 T03040176  RH  046%=      5-min Rain = 0
KAM3 182107Z 18011KT 31/17 A2992 RMK A01 T03050174  RH  045%=      5-min Rain = 0
KAM3 182108Z 17010KT 30/18 A2992 RMK A01 T03000177  RH  048%=      5-min Rain = 0
KAM3 182109Z 17008KT 30/17 A2992 RMK A01 T02960171  RH  047%=      5-min Rain = 0
KAM3 182110Z 17006KT 29/17 A2992 RMK A01 T02930169  RH  047%=      5-min Rain = 0
KAM3 182111Z 17006KT 29/17 A2991 RMK A01 T02920169  RH  047%=      5-min Rain = 0
KAM3 182112Z 16006KT 29/17 A2991 RMK A01 T02930168  RH  047%=      5-min Rain = 0
KAM3 182113Z 17005KT 30/17 A2991 RMK A01 T02950172  RH  048%=      5-min Rain = 0
KAM3 182114Z 14005KT 30/18 A2991 RMK A01 T02980175  RH  048%=      5-min Rain = 0
KAM3 182115Z 14006G17KT 30/18 A2991 RMK A01 T02990177  RH  048%=      5-min Rain = 0
KAM3 182116Z 20010G17KT 30/19 A2991 RMK A01 T02990185  RH  050%=      5-min Rain = 0
KAM3 182117Z 20008KT 30/19 A2991 RMK A01 T02970186  RH  051%=      5-min Rain = 0
KAM3 182118Z 20009KT 30/18 A2991 RMK A01 T02970179  RH  049%=      5-min Rain = 0
KAM3 182119Z 19008KT 30/17 A2991 RMK A01 T02960172  RH  047%=      5-min Rain = 0
KAM3 182120Z 20006KT 30/17 A2991 RMK A01 T02960166  RH  045%=      5-min Rain = 0
KAM3 182121Z 20006KT 30/18 A2991 RMK A01 T02960177  RH  049%=      5-min Rain = 0
KAM3 182122Z 18004KT 30/18 A299 RMK A01 T02960182  RH  050%=      5-min Rain = 0
KAM3 182123Z 18004KT 30/19 A299 RMK A01 T02970186  RH  051%=      5-min Rain = 0
KAM3 182124Z 20005KT 30/19 A299 RMK A01 T02990187  RH  051%=      5-min Rain = 0
KAM3 182125Z 22008KT 30/18 A299 RMK A01 T03030183  RH  049%=      5-min Rain = 0
KAM3 182126Z 20008KT 31/17 A299 RMK A01 T03050172  RH  045%=      5-min Rain = 0
KAM3 182127Z 19009KT 31/18 A299 RMK A01 T03060183  RH  048%=      5-min Rain = 0
KAM3 182128Z 19009KT 31/18 A299 RMK A01 T03050177  RH  046%=      5-min Rain = 0
KAM3 182129Z 19009KT 30/18 A299 RMK A01 T03030184  RH  049%=      5-min Rain = 0
KAM3 182130Z 17009KT 30/18 A299 RMK A01 T03030179  RH  047%=      5-min Rain = 0
KAM3 182131Z 19007KT 30/18 A299 RMK A01 T03030181  RH  048%=      5-min Rain = 0
KAM3 182132Z 20007KT 30/19 A299 RMK A01 T03040185  RH  049%=      5-min Rain = 0
KAM3 182133Z 19010KT 31/18 A299 RMK A01 T03060180  RH  047%=      5-min Rain = 0
KAM3 182134Z 18008KT 31/18 A299 RMK A01 T03070178  RH  046%=      5-min Rain = 0
KAM3 182135Z 18011KT 31/18 A299 RMK A01 T03060183  RH  048%=      5-min Rain = 0
KAM3 182136Z 18010KT 30/18 A299 RMK A01 T03040178  RH  047%=      5-min Rain = 0
KAM3 182137Z 17008KT 30/18 A299 RMK A01 T03030181  RH  048%=      5-min Rain = 0
KAM3 182138Z 18007KT 30/18 A2989 RMK A01 T03040184  RH  049%=      5-min Rain = 0
KAM3 182139Z 18011KT 31/18 A2989 RMK A01 T03060183  RH  048%=      5-min Rain = 0
KAM3 182140Z 19009KT 31/18 A2989 RMK A01 T03070176  RH  046%=      5-min Rain = 0
KAM3 182141Z 19008KT 31/18 A2989 RMK A01 T03070183  RH  048%=      5-min Rain = 0
KAM3 182142Z 18008KT 31/19 A2989 RMK A01 T03080190  RH  050%=      5-min Rain = 0
KAM3 182143Z 18010KT 31/18 A2989 RMK A01 T03100182  RH  047%=      5-min Rain = 0
KAM3 182144Z 18009KT 31/18 A2989 RMK A01 T03090183  RH  047%=      5-min Rain = 0
KAM3 182145Z 16011KT 31/19 A2989 RMK A01 T03090186  RH  048%=      5-min Rain = 0
KAM3 182146Z 16009KT 31/18 A2989 RMK A01 T03080181  RH  047%=      5-min Rain = 0
KAM3 182147Z 17007KT 31/19 A2988 RMK A01 T03080185  RH  048%=      5-min Rain = 0
KAM3 182148Z 17008KT 31/19 A2988 RMK A01 T03070186  RH  048%=      5-min Rain = 0
KAM3 182149Z 17010KT 31/18 A2988 RMK A01 T03070176  RH  046%=      5-min Rain = 0
KAM3 182150Z 16008KT 31/18 A2988 RMK A01 T03070178  RH  046%=      5-min Rain = 0
KAM3 182151Z 16006KT 31/18 A2988 RMK A01 T03070181  RH  047%=      5-min Rain = 0
KAM3 182152Z 17009KT 31/19 A2988 RMK A01 T03080185  RH  048%=      5-min Rain = 0
KAM3 182153Z 17009KT 31/19 A2988 RMK A01 T03080185  RH  048%=      5-min Rain = 0
KAM3 182154Z 17011KT 31/18 A2988 RMK A01 T03080183  RH  047%=      5-min Rain = 0
KAM3 182155Z 17013KT 31/18 A2988 RMK A01 T03060180  RH  047%=      5-min Rain = 0
KAM3 182156Z 17013KT 30/17 A2988 RMK A01 T03020174  RH  046%=      5-min Rain = 0
KAM3 182157Z 17013KT 30/17 A2988 RMK A01 T03000172  RH  046%=      5-min Rain = 0
KAM3 182158Z 18010KT 30/18 A2988 RMK A01 T02990178  RH  048%=      5-min Rain = 0
KAM3 182159Z 18008KT 30/18 A2987 RMK A01 T02980181  RH  050%=      5-min Rain = 0
KAM3 182200Z 18009KT 30/18 A2987 RMK A01 T02950176  RH  049%=      5-min Rain = 0
KAM3 182201Z 17009KT 29/18 A2987 RMK A01 T02930177  RH  050%=      5-min Rain = 0
KAM3 182202Z 17011KT 29/18 A2987 RMK A01 T02900177  RH  050%=      5-min Rain = 0
KAM3 182203Z 17010KT 29/17 A2987 RMK A01 T02880172  RH  049%=      5-min Rain = 0
KAM3 182204Z 17012KT 29/17 A2987 RMK A01 T02870173  RH  050%=      5-min Rain = 0
KAM3 182205Z 18009KT 29/17 A2987 RMK A01 T02850173  RH  050%=      5-min Rain = 0
KAM3 182206Z 18009KT 28/18 A2987 RMK A01 T02840177  RH  052%=      5-min Rain = 0
KAM3 182207Z 18009KT 28/17 A2987 RMK A01 T02830174  RH  052%=      5-min Rain = 0
KAM3 182208Z 17010KT 28/17 A2987 RMK A01 T02830174  RH  052%=      5-min Rain = 0
KAM3 182209Z 17009KT 28/17 A2987 RMK A01 T02830173  RH  051%=      5-min Rain = 0
KAM3 182210Z 18009KT 28/17 A2987 RMK A01 T02830174  RH  052%=      5-min Rain = 0
KAM3 182211Z 18010KT 28/17 A2987 RMK A01 T02830174  RH  052%=      5-min Rain = 0
KAM3 182212Z 18010KT 28/17 A2987 RMK A01 T02830171  RH  051%=      5-min Rain = 0
KAM3 182213Z 17008KT 28/17 A2987 RMK A01 T02830174  RH  052%=      5-min Rain = 0
KAM3 182214Z 18009G15KT 28/18 A2987 RMK A01 T02830176  RH  052%=      5-min Rain = 0
KAM3 182215Z 18011KT 28/17 A2987 RMK A01 T02830173  RH  051%=      5-min Rain = 0
KAM3 182216Z 18011KT 28/17 A2987 RMK A01 T02830173  RH  051%=      5-min Rain = 0
KAM3 182217Z 18011KT 28/17 A2987 RMK A01 T02840172  RH  051%=      5-min Rain = 0
KAM3 182218Z 18012KT 29/17 A2987 RMK A01 T02850173  RH  051%=      5-min Rain = 0
KAM3 182219Z 18012KT 28/17 A2987 RMK A01 T02840173  RH  051%=      5-min Rain = 0
KAM3 182220Z 17012KT 29/18 A2987 RMK A01 T02850175  RH  051%=      5-min Rain = 0
KAM3 182221Z 18011KT 28/17 A2987 RMK A01 T02840174  RH  051%=      5-min Rain = 0
KAM3 182222Z 18012KT 28/18 A2987 RMK A01 T02840176  RH  052%=      5-min Rain = 0
KAM3 182223Z 18011KT 28/17 A2987 RMK A01 T02830174  RH  052%=      5-min Rain = 0
KAM3 182224Z 18009KT 28/18 A2987 RMK A01 T02830176  RH  052%=      5-min Rain = 0
KAM3 182225Z 18009KT 28/18 A2987 RMK A01 T02830176  RH  052%=      5-min Rain = 0
KAM3 182226Z 17011KT 28/18 A2987 RMK A01 T02830176  RH  052%=      5-min Rain = 0
KAM3 182227Z 18010KT 28/18 A2987 RMK A01 T02830177  RH  052%=      5-min Rain = 0
KAM3 182228Z 17011KT 28/17 A2987 RMK A01 T02830173  RH  051%=      5-min Rain = 0
KAM3 182229Z 17009KT 28/17 A2987 RMK A01 T02840172  RH  051%=      5-min Rain = 0
KAM3 182230Z 17009KT 28/18 A2988 RMK A01 T02840177  RH  052%=      5-min Rain = 0
KAM3 182231Z 17011KT 28/18 A2988 RMK A01 T02840176  RH  052%=      5-min Rain = 0
KAM3 182232Z 17009KT 28/17 A2988 RMK A01 T02840173  RH  051%=      5-min Rain = 0
KAM3 182233Z 17008KT 28/18 A2988 RMK A01 T02840179  RH  053%=      5-min Rain = 0
KAM3 182234Z 17008KT 28/18 A2987 RMK A01 T02830180  RH  054%=      5-min Rain = 0
KAM3 182235Z 17008KT 28/18 A2987 RMK A01 T02820180  RH  054%=      5-min Rain = 0
KAM3 182236Z 17008KT 28/18 A2987 RMK A01 T02810181  RH  055%=      5-min Rain = 0
KAM3 182237Z 17008KT 28/18 A2987 RMK A01 T02810180  RH  054%=      5-min Rain = 0
KAM3 182238Z 17008KT 28/18 A2988 RMK A01 T02810181  RH  055%=      5-min Rain = 0
KAM3 182239Z 17009KT 28/18 A2988 RMK A01 T02800181  RH  055%=      5-min Rain = 0
KAM3 182240Z 17008KT 28/18 A2988 RMK A01 T02800182  RH  055%=      5-min Rain = 0
KAM3 182241Z 17007KT 28/18 A2988 RMK A01 T02790183  RH  056%=      5-min Rain = 0
KAM3 182242Z 17007KT 28/18 A2987 RMK A01 T02790184  RH  056%=      5-min Rain = 0
KAM3 182243Z 17007KT 28/18 A2987 RMK A01 T02780184  RH  057%=      5-min Rain = 0
KAM3 182244Z 17008KT 28/18 A2987 RMK A01 T02780184  RH  057%=      5-min Rain = 0
KAM3 182245Z 16008KT 28/18 A2987 RMK A01 T02780182  RH  056%=      5-min Rain = 0
KAM3 182246Z 17007KT 28/18 A2987 RMK A01 T02780184  RH  057%=      5-min Rain = 0
KAM3 182247Z 17008KT 28/18 A2987 RMK A01 T02770184  RH  057%=      5-min Rain = 0
KAM3 182248Z 16008KT 28/18 A2987 RMK A01 T02770182  RH  056%=      5-min Rain = 0
KAM3 182249Z 16009KT 28/18 A2987 RMK A01 T02770183  RH  056%=      5-min Rain = 0
KAM3 182250Z 16009KT 28/18 A2987 RMK A01 T02770183  RH  057%=      5-min Rain = 0
KAM3 182251Z 16008KT 28/18 A2987 RMK A01 T02770182  RH  056%=      5-min Rain = 0
KAM3 182252Z 17009KT 28/18 A2987 RMK A01 T02770184  RH  057%=      5-min Rain = 0
KAM3 182253Z 16009KT 28/18 A2987 RMK A01 T02770182  RH  056%=      5-min Rain = 0
KAM3 182254Z 16008KT 28/18 A2987 RMK A01 T02760184  RH  057%=      5-min Rain = 0
KAM3 182255Z 16008KT 28/18 A2987 RMK A01 T02760183  RH  057%=      5-min Rain = 0
KAM3 182256Z 16008KT 28/18 A2987 RMK A01 T02770184  RH  057%=      5-min Rain = 0
KAM3 182257Z 15007KT 28/18 A2987 RMK A01 T02770184  RH  057%=      5-min Rain = 0
KAM3 182258Z 15007KT 28/19 A2987 RMK A01 T02760186  RH  058%=      5-min Rain = 0
KAM3 182259Z 15007KT 28/19 A2986 RMK A01 T02760186  RH  058%=      5-min Rain = 0
KAM3 182300Z 15008KT 28/19 A2986 RMK A01 T02760185  RH  058%=      5-min Rain = 0
KAM3 182301Z 15007KT 28/18 A2986 RMK A01 T02760184  RH  057%=      5-min Rain = 0
KAM3 182302Z 15007KT 28/18 A2986 RMK A01 T02760184  RH  057%=      5-min Rain = 0
KAM3 182303Z 16007KT 28/19 A2986 RMK A01 T02760186  RH  058%=      5-min Rain = 0
KAM3 182304Z 15007KT 28/19 A2986 RMK A01 T02760186  RH  058%=      5-min Rain = 0
KAM3 182305Z 15007KT 28/19 A2986 RMK A01 T02750185  RH  058%=      5-min Rain = 0
KAM3 182306Z 15007KT 28/19 A2986 RMK A01 T02750187  RH  058%=      5-min Rain = 0
KAM3 182307Z 15007KT 28/19 A2986 RMK A01 T02750187  RH  059%=      5-min Rain = 0
KAM3 182308Z 15006KT 28/19 A2986 RMK A01 T02750187  RH  059%=      5-min Rain = 0
KAM3 182309Z 15006KT 28/19 A2986 RMK A01 T02750188  RH  059%=      5-min Rain = 0
KAM3 182310Z 15006KT 28/19 A2986 RMK A01 T02750190  RH  060%=      5-min Rain = 0
KAM3 182311Z 14006KT 28/19 A2986 RMK A01 T02770194  RH  061%=      5-min Rain = 0
KAM3 182312Z 14006KT 28/19 A2986 RMK A01 T02790194  RH  060%=      5-min Rain = 0
KAM3 182313Z 14005KT 28/19 A2985 RMK A01 T02820194  RH  059%=      5-min Rain = 0
KAM3 182314Z 14006KT 28/19 A2986 RMK A01 T02840194  RH  058%=      5-min Rain = 0
KAM3 182315Z 14005KT 29/19 A2986 RMK A01 T02880193  RH  056%=      5-min Rain = 0
KAM3 182316Z 14006KT 29/19 A2986 RMK A01 T02910194  RH  056%=      5-min Rain = 0
KAM3 182317Z 14006KT 29/20 A2986 RMK A01 T02930195  RH  055%=      5-min Rain = 0
KAM3 182318Z 14007KT 30/19 A2985 RMK A01 T02950193  RH  054%=      5-min Rain = 0
KAM3 182319Z 14006KT 30/19 A2985 RMK A01 T02960189  RH  053%=      5-min Rain = 0
KAM3 182320Z 14005KT 30/20 A2985 RMK A01 T02960198  RH  056%=      5-min Rain = 0
KAM3 182321Z 15007KT 30/19 A2985 RMK A01 T02960192  RH  054%=      5-min Rain = 0
KAM3 182322Z 14007KT 30/18 A2985 RMK A01 T02960184  RH  051%=      5-min Rain = 0
KAM3 182323Z 15007KT 30/19 A2985 RMK A01 T02950187  RH  052%=      5-min Rain = 0
KAM3 182324Z 15006KT 29/19 A2985 RMK A01 T02930189  RH  053%=      5-min Rain = 0
KAM3 182325Z 14007KT 29/19 A2985 RMK A01 T02920187  RH  053%=      5-min Rain = 0
KAM3 182326Z 15006KT 29/19 A2985 RMK A01 T02910189  RH  054%=      5-min Rain = 0
KAM3 182327Z 15006KT 29/19 A2985 RMK A01 T02900190  RH  055%=      5-min Rain = 0
KAM3 182328Z 15007KT 29/19 A2985 RMK A01 T02890192  RH  056%=      5-min Rain = 0
KAM3 182329Z 15006KT 29/19 A2985 RMK A01 T02870190  RH  056%=      5-min Rain = 0
KAM3 182330Z 15007KT 29/19 A2985 RMK A01 T02860188  RH  055%=      5-min Rain = 0
KAM3 182331Z 14006KT 29/19 A2985 RMK A01 T02860188  RH  055%=      5-min Rain = 0
KAM3 182332Z 15006KT 29/19 A2985 RMK A01 T02860193  RH  057%=      5-min Rain = 0
KAM3 182333Z 15006KT 29/20 A2985 RMK A01 T02870195  RH  057%=      5-min Rain = 0
KAM3 182334Z 15007KT 29/19 A2986 RMK A01 T02890192  RH  056%=      5-min Rain = 0
KAM3 182335Z 15006KT 29/19 A2986 RMK A01 T02910194  RH  056%=      5-min Rain = 0
KAM3 182336Z 15007KT 29/19 A2986 RMK A01 T02920189  RH  054%=      5-min Rain = 0
KAM3 182337Z 15007KT 29/19 A2985 RMK A01 T02930186  RH  052%=      5-min Rain = 0
KAM3 182338Z 15006KT 29/19 A2985 RMK A01 T02940194  RH  055%=      5-min Rain = 0
KAM3 182339Z 15007KT 30/19 A2985 RMK A01 T02950191  RH  054%=      5-min Rain = 0
KAM3 182340Z 15007KT 30/19 A2985 RMK A01 T02960191  RH  053%=      5-min Rain = 0
KAM3 182341Z 15007KT 30/19 A2985 RMK A01 T02970193  RH  054%=      5-min Rain = 0
KAM3 182342Z 15008KT 30/19 A2985 RMK A01 T02980189  RH  052%=      5-min Rain = 0
KAM3 182343Z 15007KT 30/19 A2985 RMK A01 T02970190  RH  052%=      5-min Rain = 0
KAM3 182344Z 16006KT 30/20 A2985 RMK A01 T02980199  RH  055%=      5-min Rain = 0
KAM3 182345Z 15008KT 30/20 A2985 RMK A01 T02980195  RH  054%=      5-min Rain = 0
KAM3 182346Z 15009KT 30/19 A2985 RMK A01 T02990194  RH  053%=      5-min Rain = 0
KAM3 182347Z 15007KT 30/19 A2985 RMK A01 T03000188  RH  051%=      5-min Rain = 0
KAM3 182348Z 15007KT 30/19 A2985 RMK A01 T02990192  RH  053%=      5-min Rain = 0
KAM3 182349Z 14006KT 30/19 A2985 RMK A01 T02990193  RH  053%=      5-min Rain = 0
KAM3 182350Z 16005KT 30/20 A2984 RMK A01 T02990195  RH  054%=      5-min Rain = 0
KAM3 182351Z 14005KT 30/20 A2984 RMK A01 T03000199  RH  055%=      5-min Rain = 0
KAM3 182352Z 15007KT 30/19 A2984 RMK A01 T03000192  RH  053%=      5-min Rain = 0
KAM3 182353Z 15007KT 30/19 A2984 RMK A01 T02980190  RH  052%=      5-min Rain = 0
KAM3 182354Z 15006KT 30/19 A2984 RMK A01 T02960194  RH  054%=      5-min Rain = 0
KAM3 182355Z 14007KT 29/19 A2984 RMK A01 T02940186  RH  052%=      5-min Rain = 0
KAM3 182356Z 15008KT 29/19 A2984 RMK A01 T02920186  RH  053%=      5-min Rain = 0
KAM3 182357Z 14009KT 29/18 A2983 RMK A01 T02910184  RH  052%=      5-min Rain = 0
KAM3 182358Z 15009KT 29/18 A2983 RMK A01 T02900183  RH  052%=      5-min Rain = 0
KAM3 182359Z 15008KT 29/18 A2983 RMK A01 T02890182  RH  053%=      5-min Rain = 0
KAM3 190000Z 15008KT 29/18 A2983 RMK A01 T02880184  RH  053%=      5-min Rain = 0
KAM3 190001Z 17007KT 29/18 A2983 RMK A01 T02870179  RH  052%=      5-min Rain = 0
KAM3 190002Z 16007KT 29/18 A2983 RMK A01 T02870180  RH  052%=      5-min Rain = 0
KAM3 190003Z 17008KT 29/18 A2983 RMK A01 T02860182  RH  053%=      5-min Rain = 0
KAM3 190004Z 17007KT 28/18 A2983 RMK A01 T02830182  RH  054%=      5-min Rain = 0
KAM3 190005Z 16008KT 28/18 A2983 RMK A01 T02820179  RH  054%=      5-min Rain = 0
KAM3 190006Z 18007KT 28/16 A2983 RMK A01 T02820164  RH  049%=      5-min Rain = 0
KAM3 190007Z 17007KT 28/16 A2983 RMK A01 T02830160  RH  047%=      5-min Rain = 0
KAM3 190008Z 19004KT 28/17 A2983 RMK A01 T02840170  RH  050%=      5-min Rain = 0
KAM3 190009Z 20005KT 28/16 A2983 RMK A01 T02830159  RH  047%=      5-min Rain = 0
KAM3 190010Z 19006KT 28/16 A2984 RMK A01 T02840160  RH  047%=      5-min Rain = 0
KAM3 190011Z 21005KT 28/16 A2984 RMK A01 T02840162  RH  048%=      5-min Rain = 0
KAM3 190012Z 21006KT 28/16 A2984 RMK A01 T02840163  RH  048%=      5-min Rain = 0
KAM3 190013Z 20007KT 28/16 A2984 RMK A01 T02830164  RH  048%=      5-min Rain = 0
KAM3 190014Z 22010KT 28/16 A2984 RMK A01 T02830157  RH  046%=      5-min Rain = 0
KAM3 190015Z 22009KT 29/15 A2984 RMK A01 T02850147  RH  043%=      5-min Rain = 0
KAM3 190016Z 21008KT 29/16 A2985 RMK A01 T02860155  RH  045%=      5-min Rain = 0
KAM3 190017Z 21007KT 29/16 A2985 RMK A01 T02870160  RH  046%=      5-min Rain = 0
KAM3 190018Z 21009KT 29/16 A2985 RMK A01 T02880160  RH  046%=      5-min Rain = 0
KAM3 190019Z 22010KT 29/15 A2985 RMK A01 T02890148  RH  042%=      5-min Rain = 0
KAM3 190020Z 22008KT 29/14 A2984 RMK A01 T02930142  RH  040%=      5-min Rain = 0
KAM3 190021Z 20006KT 30/14 A2984 RMK A01 T02960140  RH  039%=      5-min Rain = 0
KAM3 190022Z 18006KT 30/14 A2983 RMK A01 T02990144  RH  039%=      5-min Rain = 0
KAM3 190023Z 17009KT 30/15 A2982 RMK A01 T03000147  RH  039%=      5-min Rain = 0
KAM3 190024Z 17008KT 30/15 A2982 RMK A01 T03000146  RH  039%=      5-min Rain = 0
KAM3 190025Z 17007KT 30/15 A2982 RMK A01 T03010149  RH  040%=      5-min Rain = 0
KAM3 190026Z 18007KT 30/16 A2982 RMK A01 T03010156  RH  041%=      5-min Rain = 0
KAM3 190027Z 19009KT 30/16 A2982 RMK A01 T03010155  RH  041%=      5-min Rain = 0
KAM3 190028Z 18010KT 30/16 A2982 RMK A01 T03010158  RH  042%=      5-min Rain = 0
KAM3 190029Z 18009KT 30/16 A2982 RMK A01 T03010161  RH  043%=      5-min Rain = 0
KAM3 190030Z 18009KT 30/17 A2982 RMK A01 T03010168  RH  045%=      5-min Rain = 0
KAM3 190031Z 18009KT 30/17 A2982 RMK A01 T03000171  RH  046%=      5-min Rain = 0
KAM3 190032Z 17010KT 30/17 A2982 RMK A01 T02980172  RH  047%=      5-min Rain = 0
KAM3 190033Z 18012KT 30/17 A2982 RMK A01 T02980172  RH  047%=      5-min Rain = 0
KAM3 190034Z 17013KT 30/17 A2982 RMK A01 T02970171  RH  047%=      5-min Rain = 0
KAM3 190035Z 17011KT 30/17 A2982 RMK A01 T02970169  RH  046%=      5-min Rain = 0
KAM3 190036Z 17010KT 30/17 A2982 RMK A01 T02960169  RH  046%=      5-min Rain = 0
KAM3 190037Z 17010KT 30/17 A2982 RMK A01 T02960171  RH  047%=      5-min Rain = 0
KAM3 190038Z 17010KT 30/17 A2982 RMK A01 T02960173  RH  047%=      5-min Rain = 0
KAM3 190039Z 17010KT 30/17 A2982 RMK A01 T02950172  RH  048%=      5-min Rain = 0
KAM3 190040Z 18009KT 30/18 A2982 RMK A01 T02950175  RH  048%=      5-min Rain = 0
KAM3 190041Z 18008KT 29/18 A2982 RMK A01 T02930179  RH  050%=      5-min Rain = 0
KAM3 190042Z 19009KT 29/18 A2982 RMK A01 T02920180  RH  051%=      5-min Rain = 0
KAM3 190043Z 18009KT 29/18 A2982 RMK A01 T02920177  RH  050%=      5-min Rain = 0
KAM3 190044Z 18008KT 29/18 A2982 RMK A01 T02920181  RH  051%=      5-min Rain = 0
KAM3 190045Z 18008KT 29/18 A2983 RMK A01 T02920184  RH  052%=      5-min Rain = 0
KAM3 190046Z 19008KT 29/19 A2983 RMK A01 T02910186  RH  053%=      5-min Rain = 0
KAM3 190047Z 19010KT 29/18 A2983 RMK A01 T02900184  RH  053%=      5-min Rain = 0
KAM3 190048Z 19010KT 29/19 A2983 RMK A01 T02890185  RH  053%=      5-min Rain = 0
KAM3 190049Z 19010KT 29/18 A2983 RMK A01 T02890183  RH  053%=      5-min Rain = 0
KAM3 190050Z 18009KT 29/18 A2982 RMK A01 T02880181  RH  052%=      5-min Rain = 0
KAM3 190051Z 18010KT 29/18 A2982 RMK A01 T02870176  RH  051%=      5-min Rain = 0
KAM3 190052Z 18010KT 29/17 A2983 RMK A01 T02870172  RH  050%=      5-min Rain = 0
KAM3 190053Z 18010KT 29/17 A2983 RMK A01 T02870173  RH  050%=      5-min Rain = 0
KAM3 190054Z 18010KT 29/17 A2983 RMK A01 T02860170  RH  049%=      5-min Rain = 0
KAM3 190055Z 18010KT 29/17 A2983 RMK A01 T02850169  RH  049%=      5-min Rain = 0
KAM3 190056Z 18010KT 29/17 A2983 RMK A01 T02850167  RH  049%=      5-min Rain = 0
KAM3 190057Z 18010KT 28/17 A2983 RMK A01 T02840168  RH  049%=      5-min Rain = 0
KAM3 190058Z 18010KT 28/16 A2983 RMK A01 T02840163  RH  048%=      5-min Rain = 0
KAM3 190059Z 18010KT 28/16 A2983 RMK A01 T02830162  RH  048%=      5-min Rain = 0
KAM3 190100Z 18010KT 28/16 A2983 RMK A01 T02820160  RH  047%=      5-min Rain = 0
KAM3 190101Z 18010KT 28/16 A2983 RMK A01 T02810160  RH  048%=      5-min Rain = 0
KAM3 190102Z 18010KT 28/16 A2983 RMK A01 T02800159  RH  048%=      5-min Rain = 0
KAM3 190103Z 18010KT 28/16 A2983 RMK A01 T02790160  RH  048%=      5-min Rain = 0
KAM3 190104Z 18011KT 28/16 A2983 RMK A01 T02780158  RH  048%=      5-min Rain = 0
KAM3 190105Z 19010KT 28/16 A2983 RMK A01 T02770158  RH  048%=      5-min Rain = 0
KAM3 190106Z 18011KT 28/16 A2983 RMK A01 T02770160  RH  049%=      5-min Rain = 0
KAM3 190107Z 18009KT 28/16 A2983 RMK A01 T02760160  RH  049%=      5-min Rain = 0
KAM3 190108Z 18011KT 28/16 A2983 RMK A01 T02750160  RH  049%=      5-min Rain = 0
KAM3 190109Z 18012KT 27/16 A2983 RMK A01 T02740157  RH  049%=      5-min Rain = 0
KAM3 190110Z 18010KT 27/16 A2983 RMK A01 T02740157  RH  049%=      5-min Rain = 0
KAM3 190111Z 18011KT 27/16 A2983 RMK A01 T02740158  RH  049%=      5-min Rain = 0
KAM3 190112Z 18010KT 28/16 A2983 RMK A01 T02750159  RH  049%=      5-min Rain = 0
KAM3 190113Z 18009KT 27/16 A2983 RMK A01 T02740161  RH  050%=      5-min Rain = 0
KAM3 190114Z 18008KT 27/16 A2983 RMK A01 T02730162  RH  051%=      5-min Rain = 0
KAM3 190115Z 18009KT 27/16 A2983 RMK A01 T02730162  RH  051%=      5-min Rain = 0
KAM3 190116Z 18008KT 27/16 A2983 RMK A01 T02720163  RH  051%=      5-min Rain = 0
KAM3 190117Z 18009KT 27/16 A2983 RMK A01 T02710163  RH  051%=      5-min Rain = 0
KAM3 190118Z 18009KT 27/16 A2983 RMK A01 T02710163  RH  052%=      5-min Rain = 0
KAM3 190119Z 18008KT 27/16 A2983 RMK A01 T02710164  RH  052%=      5-min Rain = 0
KAM3 190120Z 18008KT 27/17 A2983 RMK A01 T02700165  RH  053%=      5-min Rain = 0
KAM3 190121Z 18008KT 27/17 A2983 RMK A01 T02690165  RH  053%=      5-min Rain = 0
KAM3 190122Z 18008KT 27/17 A2983 RMK A01 T02680166  RH  054%=      5-min Rain = 0
KAM3 190123Z 18009KT 27/17 A2983 RMK A01 T02670166  RH  054%=      5-min Rain = 0
KAM3 190124Z 18008KT 27/17 A2983 RMK A01 T02660165  RH  054%=      5-min Rain = 0
KAM3 190125Z 18009KT 27/17 A2983 RMK A01 T02660166  RH  054%=      5-min Rain = 0
KAM3 190126Z 18009KT 27/17 A2983 RMK A01 T02660165  RH  054%=      5-min Rain = 0
KAM3 190127Z 18011KT 27/16 A2983 RMK A01 T02650163  RH  054%=      5-min Rain = 0
KAM3 190128Z 18012KT 27/16 A2983 RMK A01 T02650161  RH  053%=      5-min Rain = 0
KAM3 190129Z 18012KT 27/16 A2983 RMK A01 T02650160  RH  053%=      5-min Rain = 0
KAM3 190130Z 19015KT 27/16 A2983 RMK A01 T02650158  RH  052%=      5-min Rain = 0
KAM3 190131Z 18012KT 27/16 A2983 RMK A01 T02650156  RH  051%=      5-min Rain = 0
KAM3 190132Z 18012KT 27/16 A2983 RMK A01 T02650157  RH  051%=      5-min Rain = 0
KAM3 190133Z 19011KT 26/16 A2983 RMK A01 T02640156  RH  052%=      5-min Rain = 0
KAM3 190134Z 19011KT 26/16 A2984 RMK A01 T02630157  RH  052%=      5-min Rain = 0
KAM3 190135Z 19009KT 26/16 A2984 RMK A01 T02620157  RH  052%=      5-min Rain = 0
KAM3 190136Z 19010KT 26/16 A2984 RMK A01 T02600156  RH  053%=      5-min Rain = 0
KAM3 190137Z 18009KT 26/16 A2984 RMK A01 T02590155  RH  052%=      5-min Rain = 0
KAM3 190138Z 18009KT 26/15 A2984 RMK A01 T02580154  RH  052%=      5-min Rain = 0
KAM3 190139Z 18009KT 26/15 A2984 RMK A01 T02580152  RH  052%=      5-min Rain = 0
KAM3 190140Z 18010KT 26/15 A2984 RMK A01 T02580150  RH  051%=      5-min Rain = 0
KAM3 190141Z 17010KT 26/15 A2984 RMK A01 T02570146  RH  050%=      5-min Rain = 0
KAM3 190142Z 17011KT 26/14 A2984 RMK A01 T02570142  RH  049%=      5-min Rain = 0
KAM3 190143Z 17012KT 26/14 A2984 RMK A01 T02570140  RH  048%=      5-min Rain = 0
KAM3 190144Z 17010KT 26/14 A2984 RMK A01 T02570139  RH  048%=      5-min Rain = 0
KAM3 190145Z 17010KT 26/14 A2984 RMK A01 T02560140  RH  049%=      5-min Rain = 0
KAM3 190146Z 17010KT 26/14 A2984 RMK A01 T02550139  RH  049%=      5-min Rain = 0
KAM3 190147Z 17011KT 25/14 A2984 RMK A01 T02530137  RH  048%=      5-min Rain = 0
KAM3 190148Z 16011KT 25/14 A2984 RMK A01 T02530136  RH  048%=      5-min Rain = 0
KAM3 190149Z 17011KT 25/13 A2984 RMK A01 T02520134  RH  048%=      5-min Rain = 0
KAM3 190150Z 17010KT 25/13 A2984 RMK A01 T02520132  RH  047%=      5-min Rain = 0
KAM3 190151Z 16011KT 25/13 A2984 RMK A01 T02520130  RH  047%=      5-min Rain = 0
KAM3 190152Z 16010KT 25/13 A2984 RMK A01 T02520129  RH  046%=      5-min Rain = 0
KAM3 190153Z 16009KT 25/13 A2984 RMK A01 T02530130  RH  047%=      5-min Rain = 0
KAM3 190154Z 16008KT 25/13 A2984 RMK A01 T02520131  RH  047%=      5-min Rain = 0
KAM3 190155Z 16008KT 25/13 A2984 RMK A01 T02510131  RH  047%=      5-min Rain = 0
KAM3 190156Z 15009KT 25/13 A2984 RMK A01 T02500131  RH  047%=      5-min Rain = 0
KAM3 190157Z 15008KT 25/13 A2984 RMK A01 T02490131  RH  048%=      5-min Rain = 0
KAM3 190158Z 15008KT 25/13 A2984 RMK A01 T02490133  RH  048%=      5-min Rain = 0
KAM3 190159Z 15008KT 25/13 A2984 RMK A01 T02480132  RH  048%=      5-min Rain = 0
KAM3 190200Z 14007KT 25/13 A2984 RMK A01 T02470133  RH  049%=      5-min Rain = 0
KAM3 190201Z 14006KT 25/13 A2984 RMK A01 T02460133  RH  049%=      5-min Rain = 0
KAM3 190202Z 14007KT 25/13 A2984 RMK A01 T02460133  RH  049%=      5-min Rain = 0
KAM3 190203Z 14006KT 25/13 A2984 RMK A01 T02450133  RH  050%=      5-min Rain = 0
KAM3 190204Z 14006KT 25/13 A2984 RMK A01 T02450133  RH  050%=      5-min Rain = 0
KAM3 190205Z 13006KT 24/13 A2984 RMK A01 T02440133  RH  050%=      5-min Rain = 0
KAM3 190206Z 13006KT 24/13 A2984 RMK A01 T02430134  RH  051%=      5-min Rain = 0
KAM3 190207Z 11005KT 24/14 A2985 RMK A01 T02410135  RH  052%=      5-min Rain = 0
KAM3 190208Z 10005KT 24/14 A2985 RMK A01 T02380137  RH  053%=      5-min Rain = 0
KAM3 190209Z 08005KT 24/14 A2985 RMK A01 T02360137  RH  054%=      5-min Rain = 0
KAM3 190210Z 07007KT 23/14 A2985 RMK A01 T02340138  RH  055%=      5-min Rain = 0
KAM3 190211Z 06008KT 23/14 A2985 RMK A01 T02320138  RH  055%=      5-min Rain = 0
KAM3 190212Z 05009KT 23/14 A2986 RMK A01 T02310139  RH  056%=      5-min Rain = 0
KAM3 190213Z 04011KT 23/14 A2986 RMK A01 T02300140  RH  057%=      5-min Rain = 0
KAM3 190214Z 04012KT 23/14 A2986 RMK A01 T02280139  RH  057%=      5-min Rain = 0
KAM3 190215Z 05012KT 23/14 A2987 RMK A01 T02280140  RH  057%=      5-min Rain = 0
KAM3 190216Z 04013KT 23/14 A2987 RMK A01 T02290140  RH  057%=      5-min Rain = 0
KAM3 190217Z 04013KT 23/15 A2987 RMK A01 T02290146  RH  059%=      5-min Rain = 0
KAM3 190218Z 04013KT 23/15 A2987 RMK A01 T02290151  RH  061%=      5-min Rain = 0
KAM3 190219Z 03013KT 23/15 A2987 RMK A01 T02290154  RH  063%=      5-min Rain = 0
KAM3 190220Z 04016KT 23/16 A2987 RMK A01 T02290157  RH  064%=      5-min Rain = 0
KAM3 190221Z 03016KT 23/16 A2986 RMK A01 T02280159  RH  065%=      5-min Rain = 0
KAM3 190222Z 03015G21KT 23/16 A2986 RMK A01 T02260159  RH  066%=      5-min Rain = 0
KAM3 190223Z 03019KT 22/16 A2986 RMK A01 T02240158  RH  066%=      5-min Rain = 0
KAM3 190224Z 04018KT 22/16 A2986 RMK A01 T02240155  RH  065%=      5-min Rain = 0
KAM3 190225Z 05019G29KT 23/14 A2986 RMK A01 T02310139  RH  056%=      5-min Rain = 0
KAM3 190226Z 04018G24KT 24/14 A2986 RMK A01 T02430136  RH  051%=      5-min Rain = 0
KAM3 190227Z 03020KT 25/15 A2987 RMK A01 T02480145  RH  053%=      5-min Rain = 0
KAM3 190228Z 03018KT 24/15 A2987 RMK A01 T02440152  RH  057%=      5-min Rain = 0
KAM3 190229Z 06018G24KT 24/14 A2987 RMK A01 T02380141  RH  055%=      5-min Rain = 0
KAM3 190230Z 07015KT 25/14 A2987 RMK A01 T02450136  RH  050%=      5-min Rain = 0
KAM3 190231Z 07011G17KT 25/13 A2987 RMK A01 T02510132  RH  048%=      5-min Rain = 0
KAM3 190232Z 05010KT 25/14 A2987 RMK A01 T02530141  RH  050%=      5-min Rain = 0
KAM3 190233Z 05009G15KT 25/13 A2987 RMK A01 T02530125  RH  045%=      5-min Rain = 0
KAM3 190234Z 06012KT 26/14 A2988 RMK A01 T02550143  RH  050%=      5-min Rain = 0
KAM3 190235Z 06013KT 25/15 A2988 RMK A01 T02470149  RH  054%=      5-min Rain = 0
KAM3 190236Z 06013KT 24/15 A2988 RMK A01 T02380152  RH  058%=      5-min Rain = 0
KAM3 190237Z 05013KT 23/15 A2988 RMK A01 T02330151  RH  060%=      5-min Rain = 0
KAM3 190238Z 04012KT 23/15 A2988 RMK A01 T02300150  RH  061%=      5-min Rain = 0
KAM3 190239Z 03010KT 23/15 A2988 RMK A01 T02280151  RH  062%=      5-min Rain = 0
KAM3 190240Z 02008KT 23/15 A2988 RMK A01 T02260153  RH  063%=      5-min Rain = 0
KAM3 190241Z 02008KT 22/15 A2988 RMK A01 T02240152  RH  064%=      5-min Rain = 0
KAM3 190242Z 01008KT 22/15 A2988 RMK A01 T02220151  RH  064%=      5-min Rain = 0
KAM3 190243Z 35006KT 22/15 A2988 RMK A01 T02210150  RH  064%=      5-min Rain = 0
KAM3 190244Z 02005KT 22/15 A2988 RMK A01 T02200150  RH  065%=      5-min Rain = 0
KAM3 190245Z 03005KT 22/15 A2988 RMK A01 T02190150  RH  065%=      5-min Rain = 0
KAM3 190246Z 03005KT 22/15 A2988 RMK A01 T02180150  RH  065%=      5-min Rain = 0
KAM3 190247Z 04009KT 22/15 A2988 RMK A01 T02170149  RH  065%=      5-min Rain = 0
KAM3 190248Z 06005KT 22/15 A2988 RMK A01 T02150148  RH  066%=      5-min Rain = 0
KAM3 190249Z 06006KT 21/15 A2988 RMK A01 T02140149  RH  066%=      5-min Rain = 0
KAM3 190250Z 05006KT 21/15 A2988 RMK A01 T02130149  RH  067%=      5-min Rain = 0
KAM3 190251Z 05007KT 21/15 A2988 RMK A01 T02120149  RH  067%=      5-min Rain = 0
KAM3 190252Z 06005KT 21/15 A2988 RMK A01 T02110149  RH  068%=      5-min Rain = 0
KAM3 190253Z 06005KT 21/15 A2988 RMK A01 T02100149  RH  068%=      5-min Rain = 0
KAM3 190254Z 06006KT 21/15 A2988 RMK A01 T02090150  RH  069%=      5-min Rain = 0
KAM3 190255Z 06008KT 21/15 A2988 RMK A01 T02080150  RH  069%=      5-min Rain = 0
KAM3 190256Z 05008KT 21/15 A2988 RMK A01 T02070149  RH  069%=      5-min Rain = 0
KAM3 190257Z 05009KT 21/15 A2988 RMK A01 T02070149  RH  069%=      5-min Rain = 0
KAM3 190258Z 05009KT 21/15 A2988 RMK A01 T02070149  RH  069%=      5-min Rain = 0
KAM3 190259Z 05008KT 21/15 A2988 RMK A01 T02070148  RH  069%=      5-min Rain = 0
KAM3 190300Z 05009KT 21/15 A2988 RMK A01 T02070148  RH  069%=      5-min Rain = 0
KAM3 190301Z 05010KT 21/15 A2988 RMK A01 T02070148  RH  069%=      5-min Rain = 0
KAM3 190302Z 05011KT 21/15 A2989 RMK A01 T02060148  RH  069%=      5-min Rain = 0
KAM3 190303Z 05012KT 21/15 A2989 RMK A01 T02070148  RH  069%=      5-min Rain = 0
KAM3 190304Z 05012KT 21/15 A2989 RMK A01 T02080146  RH  068%=      5-min Rain = 0
KAM3 190305Z 05011KT 21/15 A2989 RMK A01 T02090146  RH  067%=      5-min Rain = 0
KAM3 190306Z 05012KT 21/15 A2989 RMK A01 T02100146  RH  067%=      5-min Rain = 0
KAM3 190307Z 05012KT 21/15 A2989 RMK A01 T02100146  RH  067%=      5-min Rain = 0
KAM3 190308Z 06013KT 21/14 A2989 RMK A01 T02100143  RH  066%=      5-min Rain = 0
KAM3 190309Z 06012KT 21/14 A2988 RMK A01 T02100142  RH  065%=      5-min Rain = 0
KAM3 190310Z 06012KT 21/14 A2988 RMK A01 T02090142  RH  065%=      5-min Rain = 0
KAM3 190311Z 06013KT 21/14 A2988 RMK A01 T02070141  RH  066%=      5-min Rain = 0
KAM3 190312Z 06013KT 21/14 A2988 RMK A01 T02060141  RH  066%=      5-min Rain = 0
KAM3 190313Z 06012KT 21/14 A2988 RMK A01 T02060140  RH  066%=      5-min Rain = 0
KAM3 190314Z 06011KT 21/14 A2988 RMK A01 T02050140  RH  066%=      5-min Rain = 0
KAM3 190315Z 07010KT 21/14 A2988 RMK A01 T02050141  RH  067%=      5-min Rain = 0
KAM3 190316Z 07010KT 20/14 A2988 RMK A01 T02040141  RH  067%=      5-min Rain = 0
KAM3 190317Z 08011KT 20/14 A2988 RMK A01 T02030141  RH  067%=      5-min Rain = 0
KAM3 190318Z 08011KT 20/14 A2988 RMK A01 T02030141  RH  067%=      5-min Rain = 0
KAM3 190319Z 08011KT 20/14 A2988 RMK A01 T02030139  RH  067%=      5-min Rain = 0
KAM3 190320Z 08011KT 21/14 A2988 RMK A01 T02050140  RH  066%=      5-min Rain = 0
KAM3 190321Z 08012KT 21/14 A2988 RMK A01 T02050140  RH  066%=      5-min Rain = 0
KAM3 190322Z 07012KT 21/14 A2988 RMK A01 T02050140  RH  066%=      5-min Rain = 0
KAM3 190323Z 07010KT 21/14 A2988 RMK A01 T02060141  RH  066%=      5-min Rain = 0
KAM3 190324Z 07011KT 21/14 A2988 RMK A01 T02050142  RH  067%=      5-min Rain = 0
KAM3 190325Z 08011KT 20/14 A2988 RMK A01 T02030142  RH  068%=      5-min Rain = 0
KAM3 190326Z 08011KT 20/14 A2988 RMK A01 T02020143  RH  069%=      5-min Rain = 0
KAM3 190327Z 08010KT 20/14 A2988 RMK A01 T02010143  RH  069%=      5-min Rain = 0
KAM3 190328Z 09010KT 20/14 A2988 RMK A01 T02010144  RH  070%=      5-min Rain = 0
KAM3 190329Z 09012KT 20/14 A2988 RMK A01 T02000143  RH  070%=      5-min Rain = 0
KAM3 190330Z 09011KT 20/14 A2988 RMK A01 T02000143  RH  070%=      5-min Rain = 0
KAM3 190331Z 10010KT 20/14 A2988 RMK A01 T02020144  RH  069%=      5-min Rain = 0
KAM3 190332Z 10008KT 20/15 A2988 RMK A01 T02010145  RH  070%=      5-min Rain = 0
KAM3 190333Z 10008KT 20/15 A2988 RMK A01 T02000145  RH  071%=      5-min Rain = 0
KAM3 190334Z 10008KT 20/15 A2988 RMK A01 T01980145  RH  071%=      5-min Rain = 0
KAM3 190335Z 10008KT 20/15 A2988 RMK A01 T01970146  RH  072%=      5-min Rain = 0
KAM3 190336Z 11008KT 20/15 A2988 RMK A01 T01960146  RH  073%=      5-min Rain = 0
KAM3 190337Z 11008KT 20/15 A2988 RMK A01 T01950146  RH  073%=      5-min Rain = 0
KAM3 190338Z 11008KT 20/15 A2988 RMK A01 T01950147  RH  074%=      5-min Rain = 0
KAM3 190339Z 10010KT 19/15 A2988 RMK A01 T01940147  RH  074%=      5-min Rain = 0
KAM3 190340Z 10008KT 19/15 A2988 RMK A01 T01940148  RH  075%=      5-min Rain = 0
KAM3 190341Z 11009KT 19/15 A2988 RMK A01 T01940149  RH  075%=      5-min Rain = 0
KAM3 190342Z 10009KT 20/15 A2988 RMK A01 T01950149  RH  075%=      5-min Rain = 0
KAM3 190343Z 11008KT 20/15 A2988 RMK A01 T01950150  RH  075%=      5-min Rain = 0
KAM3 190344Z 10008KT 20/15 A2988 RMK A01 T01950151  RH  075%=      5-min Rain = 0
KAM3 190345Z 11008KT 20/15 A2988 RMK A01 T01950151  RH  076%=      5-min Rain = 0
KAM3 190346Z 10008KT 20/15 A2988 RMK A01 T01950151  RH  076%=      5-min Rain = 0
KAM3 190347Z 10007KT 20/15 A2988 RMK A01 T01950151  RH  076%=      5-min Rain = 0
KAM3 190348Z 10009KT 20/15 A2988 RMK A01 T01950151  RH  076%=      5-min Rain = 0
KAM3 190349Z 10009KT 19/15 A2988 RMK A01 T01940151  RH  076%=      5-min Rain = 0
KAM3 190350Z 10007KT 20/15 A2988 RMK A01 T01950151  RH  076%=      5-min Rain = 0
KAM3 190351Z 10007KT 20/15 A2988 RMK A01 T01950152  RH  076%=      5-min Rain = 0
KAM3 190352Z 10008KT 19/15 A2989 RMK A01 T01940152  RH  076%=      5-min Rain = 0
KAM3 190353Z 09009KT 19/15 A2989 RMK A01 T01930151  RH  077%=      5-min Rain = 0
KAM3 190354Z 09008KT 20/15 A2989 RMK A01 T01950152  RH  076%=      5-min Rain = 0
KAM3 190355Z 08008KT 20/15 A299 RMK A01 T01950152  RH  076%=      5-min Rain = 0
KAM3 190356Z 06009KT 19/15 A299 RMK A01 T01940152  RH  077%=      5-min Rain = 0
KAM3 190357Z 06009KT 19/15 A299 RMK A01 T01920152  RH  078%=      5-min Rain = 0
KAM3 190358Z 05009KT 19/15 A2991 RMK A01 T01920152  RH  078%=      5-min Rain = 0
KAM3 190359Z 01012KT 19/15 A2992 RMK A01 T01920153  RH  078%=      5-min Rain = 0
KAM3 190400Z 00017KT 19/15 A2993 RMK A01 T01890153  RH  079%=      5-min Rain = 0
KAM3 190401Z 00016KT 19/15 A2994 RMK A01 T01870152  RH  080%=      5-min Rain = 0
KAM3 190402Z 36014KT 19/15 A2994 RMK A01 T01850152  RH  081%=      5-min Rain = 0
KAM3 190403Z 00017KT 19/15 A2994 RMK A01 T01850153  RH  081%=      5-min Rain = 0
KAM3 190404Z 01012KT 19/15 A2994 RMK A01 T01860153  RH  081%=      5-min Rain = 0
KAM3 190405Z 02012G17KT 19/15 A2993 RMK A01 T01880153  RH  080%=      5-min Rain = 0
KAM3 190406Z 04009KT 19/15 A2993 RMK A01 T01900153  RH  079%=      5-min Rain = 0
KAM3 190407Z 05009KT 19/15 A2992 RMK A01 T01920153  RH  078%=      5-min Rain = 0
KAM3 190408Z 06007KT 19/15 A2992 RMK A01 T01920153  RH  078%=      5-min Rain = 0
KAM3 190409Z 05008KT 19/15 A2993 RMK A01 T01920153  RH  078%=      5-min Rain = 0
KAM3 190410Z 03013KT 19/15 A2993 RMK A01 T01910154  RH  079%=      5-min Rain = 0
KAM3 190411Z 03012KT 19/15 A2993 RMK A01 T01890153  RH  080%=      5-min Rain = 0
KAM3 190412Z 03011KT 19/15 A2993 RMK A01 T01880154  RH  081%=      5-min Rain = 0
KAM3 190413Z 04012KT 19/15 A2993 RMK A01 T01870153  RH  081%=      5-min Rain = 0
KAM3 190414Z 04010KT 19/15 A2993 RMK A01 T01890153  RH  080%=      5-min Rain = 0
KAM3 190415Z 05010KT 19/15 A2993 RMK A01 T01890153  RH  080%=      5-min Rain = 0
KAM3 190416Z 06010KT 19/15 A2992 RMK A01 T01890153  RH  080%=      5-min Rain = 0
KAM3 190417Z 07009KT 19/15 A2992 RMK A01 T01890153  RH  079%=      5-min Rain = 0
KAM3 190418Z 08009KT 19/15 A2992 RMK A01 T01890153  RH  079%=      5-min Rain = 0
KAM3 190419Z 06009KT 19/15 A2992 RMK A01 T01900152  RH  079%=      5-min Rain = 0
KAM3 190420Z 03011KT 19/15 A2993 RMK A01 T01900152  RH  078%=      5-min Rain = 0
KAM3 190421Z 03013KT 19/15 A2994 RMK A01 T01910152  RH  078%=      5-min Rain = 0
KAM3 190422Z 02010KT 19/15 A2994 RMK A01 T01910152  RH  078%=      5-min Rain = 0
KAM3 190423Z 02010KT 19/15 A2994 RMK A01 T01910152  RH  078%=      5-min Rain = 0
KAM3 190424Z 03008KT 19/15 A2994 RMK A01 T01900152  RH  079%=      5-min Rain = 0
KAM3 190425Z 03012KT 19/15 A2994 RMK A01 T01890152  RH  079%=      5-min Rain = 0
KAM3 190426Z 04011KT 19/15 A2994 RMK A01 T01900150  RH  078%=      5-min Rain = 0
KAM3 190427Z 05010KT 19/15 A2993 RMK A01 T01910150  RH  077%=      5-min Rain = 0
KAM3 190428Z 06010KT 19/15 A2993 RMK A01 T01920149  RH  076%=      5-min Rain = 0
KAM3 190429Z 06010KT 19/15 A2993 RMK A01 T01940150  RH  076%=      5-min Rain = 0
KAM3 190430Z 06010KT 19/15 A2993 RMK A01 T01940150  RH  075%=      5-min Rain = 0
KAM3 190431Z 06010KT 19/15 A2993 RMK A01 T01940150  RH  075%=      5-min Rain = 0
KAM3 190432Z 06009KT 19/15 A2994 RMK A01 T01940149  RH  075%=      5-min Rain = 0
KAM3 190433Z 05009KT 20/15 A2994 RMK A01 T01950149  RH  075%=      5-min Rain = 0
KAM3 190434Z 05009KT 20/15 A2994 RMK A01 T01950150  RH  075%=      5-min Rain = 0
KAM3 190435Z 05009KT 19/15 A2994 RMK A01 T01940150  RH  076%=      5-min Rain = 0
KAM3 190436Z 05010KT 19/15 A2994 RMK A01 T01930150  RH  076%=      5-min Rain = 0
KAM3 190437Z 05009KT 19/15 A2994 RMK A01 T01920150  RH  076%=      5-min Rain = 0
KAM3 190438Z 05008KT 19/15 A2994 RMK A01 T01910150  RH  077%=      5-min Rain = 0
KAM3 190439Z 06009KT 19/15 A2994 RMK A01 T01900150  RH  078%=      5-min Rain = 0
KAM3 190440Z 07009KT 19/15 A2994 RMK A01 T01890150  RH  078%=      5-min Rain = 0
KAM3 190441Z 07009KT 19/15 A2994 RMK A01 T01890150  RH  078%=      5-min Rain = 0
KAM3 190442Z 07009KT 19/15 A2994 RMK A01 T01900149  RH  077%=      5-min Rain = 0
KAM3 190443Z 08009KT 19/15 A2994 RMK A01 T01890149  RH  077%=      5-min Rain = 0
KAM3 190444Z 08010KT 19/15 A2993 RMK A01 T01890149  RH  077%=      5-min Rain = 0
KAM3 190445Z 08009KT 19/15 A2993 RMK A01 T01890148  RH  077%=      5-min Rain = 0
KAM3 190446Z 08009KT 19/15 A2994 RMK A01 T01900149  RH  077%=      5-min Rain = 0
KAM3 190447Z 08008KT 19/15 A2994 RMK A01 T01890149  RH  077%=      5-min Rain = 0
KAM3 190448Z 07008KT 19/15 A2994 RMK A01 T01880149  RH  078%=      5-min Rain = 0
KAM3 190449Z 07007KT 19/15 A2994 RMK A01 T01880148  RH  078%=      5-min Rain = 0
KAM3 190450Z 07009KT 19/15 A2994 RMK A01 T01880148  RH  078%=      5-min Rain = 0
KAM3 190451Z 06009KT 19/15 A2994 RMK A01 T01880147  RH  077%=      5-min Rain = 0
KAM3 190452Z 06009KT 19/15 A2994 RMK A01 T01880146  RH  077%=      5-min Rain = 0
KAM3 190453Z 07010KT 19/15 A2994 RMK A01 T01880146  RH  077%=      5-min Rain = 0
KAM3 190454Z 07010KT 19/15 A2994 RMK A01 T01880146  RH  076%=      5-min Rain = 0
KAM3 190455Z 07009KT 19/15 A2994 RMK A01 T01890146  RH  076%=      5-min Rain = 0
KAM3 190456Z 07008KT 19/15 A2994 RMK A01 T01880146  RH  076%=      5-min Rain = 0
KAM3 190457Z 07008KT 19/15 A2994 RMK A01 T01880146  RH  076%=      5-min Rain = 0
KAM3 190458Z 07007KT 19/15 A2994 RMK A01 T01870146  RH  077%=      5-min Rain = 0
KAM3 190459Z 07008KT 19/15 A2994 RMK A01 T01860146  RH  077%=      5-min Rain = 0

Page generated in 0.1302 seconds.